^^
B2 Weather Station Historical Data
Daily Summary for January 2, 2018 Units:  Both    English   Metric
« Previous Day
Next Day »
Daily Weekly Monthly Yearly Custom
  High: Low: Average:
Temperature: 5.7 °F /  -14.6 °C -13.8 °F /  -25.4 °C -4.3 °F /  -20.2 °C
Dew Point: -0.2 °F /  -17.9 °C -18.2 °F /  -27.9 °C -9.6 °F /  -23.1 °C
Humidity: 82 % 71 % 78 %
Wind Speed: 16.1 mph /  25.9 km/h - 7.1 mph /  11.4 km/h
Wind Gust: 16.1 mph /  25.9 km/h - -
Wind:- - SW
Pressure: 30.79 in /  1042.5 hPa 30.20 in /  1022.6 hPa -
Precipitation: 0.00 in /  0 mm    
Historical Graphs
 
 
Tabular Data for January 2, 2018
Time Temperature Dew Point Pressure Wind Wind Speed Wind Gust Humidity Rainfall Rate (Hourly) solar Conditions
00:00 -10.7 °F /  -23.7 °C -15.2 °F /  -26.2 °C 30.79 in /  1042.5 hPa WSW 3.5 mph /  5.6 km/h 3.5 mph /  5.6 km/h 80 % 0.00 in /  0 mm 0.0 W/m2 CLR
00:04 -10.6 °F /  -23.7 °C -15.1 °F /  -26.2 °C 30.79 in /  1042.5 hPa WSW 4.6 mph /  7.4 km/h 4.6 mph /  7.4 km/h 80 % 0.00 in /  0 mm 0.0 W/m2 CLR
00:12 -10.5 °F /  -23.6 °C -15.0 °F /  -26.1 °C 30.79 in /  1042.5 hPa West 8.1 mph /  13 km/h 8.1 mph /  13 km/h 80 % 0.00 in /  0 mm 0.0 W/m2 CLR
00:14 -10.5 °F /  -23.6 °C -15.0 °F /  -26.1 °C 30.79 in /  1042.5 hPa WSW 3.5 mph /  5.6 km/h 4.3 mph /  6.9 km/h 80 % 0.00 in /  0 mm 0.0 W/m2 CLR
00:17 -10.4 °F /  -23.6 °C -14.9 °F /  -26.1 °C 30.78 in /  1042.2 hPa West 8.1 mph /  13 km/h 8.1 mph /  13 km/h 80 % 0.00 in /  0 mm 0.0 W/m2 CLR
00:21 -10.2 °F /  -23.4 °C -14.4 °F /  -25.8 °C 30.79 in /  1042.5 hPa WSW 4.6 mph /  7.4 km/h 4.6 mph /  7.4 km/h 81 % 0.00 in /  0 mm 0.0 W/m2 CLR
00:25 -10.2 °F /  -23.4 °C -14.4 °F /  -25.8 °C 30.79 in /  1042.5 hPa WSW 8.1 mph /  13 km/h 8.1 mph /  13 km/h 81 % 0.00 in /  0 mm 0.0 W/m2 CLR
00:27 -10.2 °F /  -23.4 °C -14.4 °F /  -25.8 °C 30.79 in /  1042.5 hPa WSW 5.8 mph /  9.3 km/h 5.8 mph /  9.3 km/h 81 % 0.00 in /  0 mm 0.0 W/m2 CLR
00:32 -10.0 °F /  -23.3 °C -14.2 °F /  -25.7 °C 30.78 in /  1042.2 hPa WSW 6.9 mph /  11.1 km/h 6.9 mph /  11.1 km/h 81 % 0.00 in /  0 mm 0.0 W/m2 CLR
00:41 -9.9 °F /  -23.3 °C -14.1 °F /  -25.6 °C 30.78 in /  1042.2 hPa WSW 6.0 mph /  9.7 km/h 6.0 mph /  9.7 km/h 81 % 0.00 in /  0 mm 0.0 W/m2 CLR
00:42 -9.9 °F /  -23.3 °C -14.1 °F /  -25.6 °C 30.78 in /  1042.2 hPa WSW 6.9 mph /  11.1 km/h 6.9 mph /  11.1 km/h 81 % 0.00 in /  0 mm 0.0 W/m2 CLR
00:48 -9.8 °F /  -23.2 °C -14.0 °F /  -25.6 °C 30.78 in /  1042.2 hPa WSW 5.8 mph /  9.3 km/h 5.8 mph /  9.3 km/h 81 % 0.00 in /  0 mm 0.0 W/m2 CLR
00:54 -9.8 °F /  -23.2 °C -14.3 °F /  -25.7 °C 30.77 in /  1041.9 hPa West 8.0 mph /  12.9 km/h 8.0 mph /  12.9 km/h 80 % 0.00 in /  0 mm 0.0 W/m2 CLR
00:59 -9.9 °F /  -23.3 °C -14.4 °F /  -25.8 °C 30.77 in /  1041.9 hPa WSW 5.8 mph /  9.3 km/h 5.8 mph /  9.3 km/h 80 % 0.00 in /  0 mm 0.0 W/m2 CLR
01:00 -9.9 °F /  -23.3 °C -14.4 °F /  -25.8 °C 30.77 in /  1041.9 hPa West 4.6 mph /  7.4 km/h 4.6 mph /  7.4 km/h 80 % 0.00 in /  0 mm 0.0 W/m2 CLR
01:05 -10.0 °F /  -23.3 °C -14.5 °F /  -25.8 °C 30.77 in /  1041.9 hPa WSW 3.5 mph /  5.6 km/h 3.5 mph /  5.6 km/h 80 % 0.00 in /  0 mm 0.0 W/m2 CLR
01:06 -10.0 °F /  -23.3 °C -14.5 °F /  -25.8 °C 30.77 in /  1041.9 hPa WSW 3.5 mph /  5.6 km/h 3.5 mph /  5.6 km/h 80 % 0.00 in /  0 mm 0.0 W/m2 CLR
01:11 -10.1 °F /  -23.4 °C -14.6 °F /  -25.9 °C 30.77 in /  1041.9 hPa West 3.0 mph /  4.8 km/h 3.0 mph /  4.8 km/h 80 % 0.00 in /  0 mm 0.0 W/m2 CLR
01:12 -10.1 °F /  -23.4 °C -14.6 °F /  -25.9 °C 30.77 in /  1041.9 hPa West 8.1 mph /  13 km/h 8.1 mph /  13 km/h 80 % 0.00 in /  0 mm 0.0 W/m2 CLR
01:16 -10.2 °F /  -23.4 °C -14.4 °F /  -25.8 °C 30.77 in /  1041.9 hPa West 2.3 mph /  3.7 km/h 2.3 mph /  3.7 km/h 81 % 0.00 in /  0 mm 0.0 W/m2 CLR
01:18 -10.2 °F /  -23.4 °C -14.4 °F /  -25.8 °C 30.77 in /  1041.9 hPa WSW 4.0 mph /  6.4 km/h 4.0 mph /  6.4 km/h 81 % 0.00 in /  0 mm 0.0 W/m2 CLR
01:23 -10.4 °F /  -23.6 °C -14.6 °F /  -25.9 °C 30.77 in /  1041.9 hPa WSW 6.9 mph /  11.1 km/h 6.9 mph /  11.1 km/h 81 % 0.00 in /  0 mm 0.0 W/m2 CLR
01:24 -10.4 °F /  -23.6 °C -14.6 °F /  -25.9 °C 30.77 in /  1041.9 hPa WSW 6.9 mph /  11.1 km/h 6.9 mph /  11.1 km/h 81 % 0.00 in /  0 mm 0.0 W/m2 CLR
01:29 -10.5 °F /  -23.6 °C -14.7 °F /  -25.9 °C 30.77 in /  1041.9 hPa WSW 5.0 mph /  8 km/h 5.0 mph /  8 km/h 81 % 0.00 in /  0 mm 0.0 W/m2 CLR
01:32 -10.6 °F /  -23.7 °C -14.8 °F /  -26 °C 30.77 in /  1041.9 hPa West 5.8 mph /  9.3 km/h 5.8 mph /  9.3 km/h 81 % 0.00 in /  0 mm 0.0 W/m2 CLR
01:36 -10.6 °F /  -23.7 °C -14.8 °F /  -26 °C 30.77 in /  1041.9 hPa West 4.6 mph /  7.4 km/h 4.6 mph /  7.4 km/h 81 % 0.00 in /  0 mm 0.0 W/m2 CLR
01:40 -10.7 °F /  -23.7 °C -14.9 °F /  -26.1 °C 30.78 in /  1042.2 hPa WSW 5.8 mph /  9.3 km/h 5.8 mph /  9.3 km/h 81 % 0.00 in /  0 mm 0.0 W/m2 CLR
01:47 -10.7 °F /  -23.7 °C -14.9 °F /  -26.1 °C 30.78 in /  1042.2 hPa WSW 3.5 mph /  5.6 km/h 3.5 mph /  5.6 km/h 81 % 0.00 in /  0 mm 0.0 W/m2 CLR
01:48 -10.7 °F /  -23.7 °C -14.9 °F /  -26.1 °C 30.78 in /  1042.2 hPa West 5.8 mph /  9.3 km/h 5.8 mph /  9.3 km/h 81 % 0.00 in /  0 mm 0.0 W/m2 CLR
01:53 -10.7 °F /  -23.7 °C -14.9 °F /  -26.1 °C 30.78 in /  1042.2 hPa WSW 2.3 mph /  3.7 km/h 2.3 mph /  3.7 km/h 81 % 0.00 in /  0 mm 0.0 W/m2 CLR
01:54 -10.7 °F /  -23.7 °C -14.9 °F /  -26.1 °C 30.78 in /  1042.2 hPa WSW 2.3 mph /  3.7 km/h 2.3 mph /  3.7 km/h 81 % 0.00 in /  0 mm 0.0 W/m2 CLR
01:57 -10.6 °F /  -23.7 °C -14.8 °F /  -26 °C 30.78 in /  1042.2 hPa North 8.1 mph /  13 km/h 8.1 mph /  13 km/h 81 % 0.00 in /  0 mm 0.0 W/m2 CLR
01:59 -10.7 °F /  -23.7 °C -14.9 °F /  -26.1 °C 30.78 in /  1042.2 hPa WSW 4.6 mph /  7.4 km/h 4.6 mph /  7.4 km/h 81 % 0.00 in /  0 mm 0.0 W/m2 CLR
02:04 -10.8 °F /  -23.8 °C -15.0 °F /  -26.1 °C 30.78 in /  1042.2 hPa WSW 3.5 mph /  5.6 km/h 3.5 mph /  5.6 km/h 81 % 0.00 in /  0 mm 0.0 W/m2 CLR
02:10 -11.0 °F /  -23.9 °C -15.2 °F /  -26.2 °C 30.78 in /  1042.2 hPa WSW 6.9 mph /  11.1 km/h 6.9 mph /  11.1 km/h 81 % 0.00 in /  0 mm 0.0 W/m2 CLR
02:15 -11.1 °F /  -23.9 °C -15.3 °F /  -26.3 °C 30.78 in /  1042.2 hPa WSW 3.5 mph /  5.6 km/h 3.5 mph /  5.6 km/h 81 % 0.00 in /  0 mm 0.0 W/m2 CLR
02:16 -11.1 °F /  -23.9 °C -15.3 °F /  -26.3 °C 30.78 in /  1042.2 hPa SW 7.0 mph /  11.3 km/h 7.0 mph /  11.3 km/h 81 % 0.00 in /  0 mm 0.0 W/m2 CLR
02:22 -11.1 °F /  -23.9 °C -15.1 °F /  -26.2 °C 30.78 in /  1042.2 hPa WSW 3.5 mph /  5.6 km/h 3.5 mph /  5.6 km/h 82 % 0.00 in /  0 mm 0.0 W/m2 CLR
02:28 -11.1 °F /  -23.9 °C -15.1 °F /  -26.2 °C 30.78 in /  1042.2 hPa WSW 3.5 mph /  5.6 km/h 3.5 mph /  5.6 km/h 82 % 0.00 in /  0 mm 0.0 W/m2 CLR
02:30 -11.1 °F /  -23.9 °C -15.3 °F /  -26.3 °C 30.78 in /  1042.2 hPa WSW 3.5 mph /  5.6 km/h 3.5 mph /  5.6 km/h 81 % 0.00 in /  0 mm 0.0 W/m2 CLR
02:36 -11.3 °F /  -24.1 °C -15.5 °F /  -26.4 °C 30.78 in /  1042.2 hPa WSW 3.5 mph /  5.6 km/h 3.5 mph /  5.6 km/h 81 % 0.00 in /  0 mm 0.0 W/m2 CLR
02:41 -11.6 °F /  -24.2 °C -15.8 °F /  -26.6 °C 30.78 in /  1042.2 hPa WSW 2.3 mph /  3.7 km/h 2.3 mph /  3.7 km/h 81 % 0.00 in /  0 mm 0.0 W/m2 CLR
02:46 -11.8 °F /  -24.3 °C -16.0 °F /  -26.7 °C 30.79 in /  1042.5 hPa SW 6.9 mph /  11.1 km/h 6.9 mph /  11.1 km/h 81 % 0.00 in /  0 mm 0.0 W/m2 CLR
02:48 -11.8 °F /  -24.3 °C -16.0 °F /  -26.7 °C 30.79 in /  1042.5 hPa WSW 5.8 mph /  9.3 km/h 5.8 mph /  9.3 km/h 81 % 0.00 in /  0 mm 0.0 W/m2 CLR
02:53 -11.8 °F /  -24.3 °C -16.0 °F /  -26.7 °C 30.78 in /  1042.2 hPa WSW 3.5 mph /  5.6 km/h 3.5 mph /  5.6 km/h 81 % 0.00 in /  0 mm 0.0 W/m2 CLR
02:56 -11.8 °F /  -24.3 °C -15.8 °F /  -26.6 °C 30.78 in /  1042.2 hPa WSW 6.9 mph /  11.1 km/h 6.9 mph /  11.1 km/h 82 % 0.00 in /  0 mm 0.0 W/m2 CLR
03:01 -11.8 °F /  -24.3 °C -15.8 °F /  -26.6 °C 30.78 in /  1042.2 hPa West 6.9 mph /  11.1 km/h 6.9 mph /  11.1 km/h 82 % 0.00 in /  0 mm 0.0 W/m2 CLR
03:02 -11.8 °F /  -24.3 °C -15.8 °F /  -26.6 °C 30.78 in /  1042.2 hPa West 3.5 mph /  5.6 km/h 3.5 mph /  5.6 km/h 82 % 0.00 in /  0 mm 0.0 W/m2 CLR
03:04 -11.8 °F /  -24.3 °C -15.8 °F /  -26.6 °C 30.77 in /  1041.9 hPa WSW 4.0 mph /  6.4 km/h 4.0 mph /  6.4 km/h 82 % 0.00 in /  0 mm 0.0 W/m2 CLR
03:09 -11.8 °F /  -24.3 °C -15.8 °F /  -26.6 °C 30.77 in /  1041.9 hPa SW 5.8 mph /  9.3 km/h 5.8 mph /  9.3 km/h 82 % 0.00 in /  0 mm 0.0 W/m2 CLR
03:10 -11.9 °F /  -24.4 °C -15.8 °F /  -26.6 °C 30.77 in /  1041.9 hPa WSW 4.0 mph /  6.4 km/h 4.0 mph /  6.4 km/h 82 % 0.00 in /  0 mm 0.0 W/m2 CLR
03:14 -11.9 °F /  -24.4 °C -15.8 °F /  -26.6 °C 30.77 in /  1041.9 hPa WSW 5.0 mph /  8 km/h 5.0 mph /  8 km/h 82 % 0.00 in /  0 mm 0.0 W/m2 CLR
03:15 -11.9 °F /  -24.4 °C -15.8 °F /  -26.6 °C 30.77 in /  1041.9 hPa WSW 9.2 mph /  14.8 km/h 9.2 mph /  14.8 km/h 82 % 0.00 in /  0 mm 0.0 W/m2 CLR
03:20 -11.8 °F /  -24.3 °C -15.8 °F /  -26.6 °C 30.77 in /  1041.9 hPa WSW 3.5 mph /  5.6 km/h 3.5 mph /  5.6 km/h 82 % 0.00 in /  0 mm 0.0 W/m2 CLR
03:21 -11.8 °F /  -24.3 °C -15.8 °F /  -26.6 °C 30.77 in /  1041.9 hPa WSW 3.5 mph /  5.6 km/h 3.5 mph /  5.6 km/h 82 % 0.00 in /  0 mm 0.0 W/m2 CLR
03:26 -11.7 °F /  -24.3 °C -15.7 °F /  -26.5 °C 30.77 in /  1041.9 hPa WSW 4.6 mph /  7.4 km/h 4.6 mph /  7.4 km/h 82 % 0.00 in /  0 mm 0.0 W/m2 CLR
03:27 -11.7 °F /  -24.3 °C -15.7 °F /  -26.5 °C 30.76 in /  1041.5 hPa WSW 5.0 mph /  8 km/h 5.0 mph /  8 km/h 82 % 0.00 in /  0 mm 0.0 W/m2 CLR
03:32 -11.6 °F /  -24.2 °C -15.6 °F /  -26.4 °C 30.76 in /  1041.5 hPa West 4.6 mph /  7.4 km/h 4.6 mph /  7.4 km/h 82 % 0.00 in /  0 mm 0.0 W/m2 CLR
03:34 -11.6 °F /  -24.2 °C -15.6 °F /  -26.4 °C 30.76 in /  1041.5 hPa West 6.9 mph /  11.1 km/h 6.9 mph /  11.1 km/h 82 % 0.00 in /  0 mm 0.0 W/m2 CLR
03:37 -11.6 °F /  -24.2 °C -15.6 °F /  -26.4 °C 30.76 in /  1041.5 hPa WSW 6.9 mph /  11.1 km/h 6.9 mph /  11.1 km/h 82 % 0.00 in /  0 mm 0.0 W/m2 CLR
03:40 -11.6 °F /  -24.2 °C -15.6 °F /  -26.4 °C 30.77 in /  1041.9 hPa WNW 6.9 mph /  11.1 km/h 6.9 mph /  11.1 km/h 82 % 0.00 in /  0 mm 0.0 W/m2 CLR
03:47 -11.5 °F /  -24.2 °C -15.5 °F /  -26.4 °C 30.77 in /  1041.9 hPa WSW 4.0 mph /  6.4 km/h 4.0 mph /  6.4 km/h 82 % 0.00 in /  0 mm 0.0 W/m2 CLR
03:52 -11.7 °F /  -24.3 °C -15.7 °F /  -26.5 °C 30.76 in /  1041.5 hPa WSW 4.6 mph /  7.4 km/h 4.6 mph /  7.4 km/h 82 % 0.00 in /  0 mm 0.0 W/m2 CLR
03:57 -12.0 °F /  -24.4 °C -15.9 °F /  -26.6 °C 30.76 in /  1041.5 hPa SW 6.0 mph /  9.7 km/h 6.0 mph /  9.7 km/h 82 % 0.00 in /  0 mm 0.0 W/m2 CLR
04:02 -12.1 °F /  -24.5 °C -16.3 °F /  -26.8 °C 30.76 in /  1041.5 hPa WSW 3.5 mph /  5.6 km/h 3.5 mph /  5.6 km/h 81 % 0.00 in /  0 mm 0.0 W/m2 CLR
04:03 -12.2 °F /  -24.6 °C -16.4 °F /  -26.9 °C 30.76 in /  1041.5 hPa WSW 3.5 mph /  5.6 km/h 3.5 mph /  5.6 km/h 81 % 0.00 in /  0 mm 0.0 W/m2 CLR
04:08 -12.3 °F /  -24.6 °C -16.5 °F /  -26.9 °C 30.76 in /  1041.5 hPa West 4.6 mph /  7.4 km/h 4.6 mph /  7.4 km/h 81 % 0.00 in /  0 mm 0.0 W/m2 CLR
04:13 -12.4 °F /  -24.7 °C -16.6 °F /  -27 °C 30.76 in /  1041.5 hPa WSW 4.0 mph /  6.4 km/h 4.0 mph /  6.4 km/h 81 % 0.00 in /  0 mm 0.0 W/m2 CLR
04:15 -12.3 °F /  -24.6 °C -16.5 °F /  -26.9 °C 30.76 in /  1041.5 hPa West 5.8 mph /  9.3 km/h 5.8 mph /  9.3 km/h 81 % 0.00 in /  0 mm 0.0 W/m2 CLR
04:22 -12.2 °F /  -24.6 °C -16.1 °F /  -26.7 °C 30.75 in /  1041.2 hPa WSW 3.5 mph /  5.6 km/h 4.0 mph /  6.4 km/h 82 % 0.00 in /  0 mm 0.0 W/m2 CLR
04:24 -12.2 °F /  -24.6 °C -16.1 °F /  -26.7 °C 30.75 in /  1041.2 hPa WSW 5.8 mph /  9.3 km/h 5.8 mph /  9.3 km/h 82 % 0.00 in /  0 mm 0.0 W/m2 CLR
04:28 -12.2 °F /  -24.6 °C -16.1 °F /  -26.7 °C 30.75 in /  1041.2 hPa WSW 3.5 mph /  5.6 km/h 3.5 mph /  5.6 km/h 82 % 0.00 in /  0 mm 0.0 W/m2 CLR
04:29 -12.2 °F /  -24.6 °C -16.1 °F /  -26.7 °C 30.75 in /  1041.2 hPa WSW 3.0 mph /  4.8 km/h 3.0 mph /  4.8 km/h 82 % 0.00 in /  0 mm 0.0 W/m2 CLR
04:34 -12.2 °F /  -24.6 °C -16.1 °F /  -26.7 °C 30.75 in /  1041.2 hPa WSW 3.5 mph /  5.6 km/h 3.5 mph /  5.6 km/h 82 % 0.00 in /  0 mm 0.0 W/m2 CLR
04:35 -12.2 °F /  -24.6 °C -16.1 °F /  -26.7 °C 30.75 in /  1041.2 hPa WSW 6.0 mph /  9.7 km/h 6.0 mph /  9.7 km/h 82 % 0.00 in /  0 mm 0.0 W/m2 CLR
04:40 -12.2 °F /  -24.6 °C -16.1 °F /  -26.7 °C 30.75 in /  1041.2 hPa WSW 3.5 mph /  5.6 km/h 3.5 mph /  5.6 km/h 82 % 0.00 in /  0 mm 0.0 W/m2 CLR
04:45 -12.1 °F /  -24.5 °C -16.0 °F /  -26.7 °C 30.75 in /  1041.2 hPa WSW 3.5 mph /  5.6 km/h 3.5 mph /  5.6 km/h 82 % 0.00 in /  0 mm 0.0 W/m2 CLR
04:46 -12.1 °F /  -24.5 °C -16.0 °F /  -26.7 °C 30.75 in /  1041.2 hPa WSW 4.6 mph /  7.4 km/h 4.6 mph /  7.4 km/h 82 % 0.00 in /  0 mm 0.0 W/m2 CLR
04:47 -12.1 °F /  -24.5 °C -16.0 °F /  -26.7 °C 30.75 in /  1041.2 hPa WSW 5.0 mph /  8 km/h 5.0 mph /  8 km/h 82 % 0.00 in /  0 mm 0.0 W/m2 CLR
04:52 -12.1 °F /  -24.5 °C -16.0 °F /  -26.7 °C 30.75 in /  1041.2 hPa WSW 3.5 mph /  5.6 km/h 3.5 mph /  5.6 km/h 82 % 0.00 in /  0 mm 0.0 W/m2 CLR
04:53 -12.1 °F /  -24.5 °C -16.0 °F /  -26.7 °C 30.75 in /  1041.2 hPa WSW 5.8 mph /  9.3 km/h 5.8 mph /  9.3 km/h 82 % 0.00 in /  0 mm 0.0 W/m2 CLR
04:58 -12.2 °F /  -24.6 °C -16.1 °F /  -26.7 °C 30.75 in /  1041.2 hPa WSW 6.0 mph /  9.7 km/h 6.0 mph /  9.7 km/h 82 % 0.00 in /  0 mm 0.0 W/m2 CLR
05:03 -12.3 °F /  -24.6 °C -16.5 °F /  -26.9 °C 30.75 in /  1041.2 hPa WSW 5.8 mph /  9.3 km/h 5.8 mph /  9.3 km/h 81 % 0.00 in /  0 mm 0.0 W/m2 CLR
05:04 -12.3 °F /  -24.6 °C -16.5 °F /  -26.9 °C 30.75 in /  1041.2 hPa WSW 4.6 mph /  7.4 km/h 4.6 mph /  7.4 km/h 81 % 0.00 in /  0 mm 0.0 W/m2 CLR
05:07 -12.4 °F /  -24.7 °C -16.6 °F /  -27 °C 30.75 in /  1041.2 hPa SW 5.8 mph /  9.3 km/h 5.8 mph /  9.3 km/h 81 % 0.00 in /  0 mm 0.0 W/m2 CLR
05:09 -12.3 °F /  -24.6 °C -16.5 °F /  -26.9 °C 30.75 in /  1041.2 hPa WSW 8.1 mph /  13 km/h 8.1 mph /  13 km/h 81 % 0.00 in /  0 mm 0.0 W/m2 CLR
05:15 -12.3 °F /  -24.6 °C -16.2 °F /  -26.8 °C 30.75 in /  1041.2 hPa WSW 5.8 mph /  9.3 km/h 5.8 mph /  9.3 km/h 82 % 0.00 in /  0 mm 0.0 W/m2 CLR
05:19 -12.2 °F /  -24.6 °C -16.1 °F /  -26.7 °C 30.75 in /  1041.2 hPa WSW 6.9 mph /  11.1 km/h 6.9 mph /  11.1 km/h 82 % 0.00 in /  0 mm 0.0 W/m2 CLR
05:20 -12.2 °F /  -24.6 °C -16.1 °F /  -26.7 °C 30.75 in /  1041.2 hPa SW 6.9 mph /  11.1 km/h 6.9 mph /  11.1 km/h 82 % 0.00 in /  0 mm 0.0 W/m2 CLR
05:28 -12.2 °F /  -24.6 °C -16.1 °F /  -26.7 °C 30.75 in /  1041.2 hPa WSW 6.0 mph /  9.7 km/h 6.0 mph /  9.7 km/h 82 % 0.00 in /  0 mm 0.0 W/m2 CLR
05:31 -12.3 °F /  -24.6 °C -16.5 °F /  -26.9 °C 30.74 in /  1040.9 hPa WSW 5.8 mph /  9.3 km/h 5.8 mph /  9.3 km/h 81 % 0.00 in /  0 mm 0.0 W/m2 CLR
05:33 -12.3 °F /  -24.6 °C -16.5 °F /  -26.9 °C 30.74 in /  1040.9 hPa WSW 4.6 mph /  7.4 km/h 4.8 mph /  7.7 km/h 81 % 0.00 in /  0 mm 0.0 W/m2 CLR
05:38 -12.5 °F /  -24.7 °C -16.7 °F /  -27.1 °C 30.74 in /  1040.9 hPa SW 5.8 mph /  9.3 km/h 5.8 mph /  9.3 km/h 81 % 0.00 in /  0 mm 0.0 W/m2 CLR
05:39 -12.6 °F /  -24.8 °C -16.8 °F /  -27.1 °C 30.74 in /  1040.9 hPa SW 5.8 mph /  9.3 km/h 5.8 mph /  9.3 km/h 81 % 0.00 in /  0 mm 0.0 W/m2 CLR
05:43 -13.0 °F /  -25 °C -17.4 °F /  -27.4 °C 30.74 in /  1040.9 hPa WSW 5.8 mph /  9.3 km/h 5.8 mph /  9.3 km/h 80 % 0.00 in /  0 mm 0.0 W/m2 CLR
05:46 -13.3 °F /  -25.2 °C -17.7 °F /  -27.6 °C 30.74 in /  1040.9 hPa SW 5.8 mph /  9.3 km/h 5.8 mph /  9.3 km/h 80 % 0.00 in /  0 mm 0.0 W/m2 CLR
05:49 -13.4 °F /  -25.2 °C -17.8 °F /  -27.7 °C 30.73 in /  1040.5 hPa SW 6.9 mph /  11.1 km/h 6.9 mph /  11.1 km/h 80 % 0.00 in /  0 mm 0.0 W/m2 CLR
05:55 -13.7 °F /  -25.4 °C -18.1 °F /  -27.8 °C 30.73 in /  1040.5 hPa SW 8.1 mph /  13 km/h 8.1 mph /  13 km/h 80 % 0.00 in /  0 mm 0.0 W/m2 CLR
06:00 -13.8 °F /  -25.4 °C -18.2 °F /  -27.9 °C 30.74 in /  1040.9 hPa SW 6.9 mph /  11.1 km/h 6.9 mph /  11.1 km/h 80 % 0.00 in /  0 mm 0.0 W/m2 CLR
06:01 -13.8 °F /  -25.4 °C -18.2 °F /  -27.9 °C 30.74 in /  1040.9 hPa WSW 8.1 mph /  13 km/h 8.1 mph /  13 km/h 80 % 0.00 in /  0 mm 0.0 W/m2 CLR
06:06 -13.8 °F /  -25.4 °C -18.0 °F /  -27.8 °C 30.74 in /  1040.9 hPa WSW 6.9 mph /  11.1 km/h 6.9 mph /  11.1 km/h 81 % 0.00 in /  0 mm 0.0 W/m2 CLR
06:08 -13.8 °F /  -25.4 °C -18.0 °F /  -27.8 °C 30.74 in /  1040.9 hPa WSW 3.5 mph /  5.6 km/h 3.5 mph /  5.6 km/h 81 % 0.00 in /  0 mm 0.0 W/m2 CLR
06:14 -13.7 °F /  -25.4 °C -17.9 °F /  -27.7 °C 30.75 in /  1041.2 hPa WSW 4.6 mph /  7.4 km/h 4.6 mph /  7.4 km/h 81 % 0.00 in /  0 mm 0.0 W/m2 CLR
06:19 -13.7 °F /  -25.4 °C -17.9 °F /  -27.7 °C 30.75 in /  1041.2 hPa WSW 3.5 mph /  5.6 km/h 3.5 mph /  5.6 km/h 81 % 0.00 in /  0 mm 0.0 W/m2 CLR
06:21 -13.7 °F /  -25.4 °C -17.9 °F /  -27.7 °C 30.75 in /  1041.2 hPa WSW 3.5 mph /  5.6 km/h 3.5 mph /  5.6 km/h 81 % 0.00 in /  0 mm 0.0 W/m2 CLR
06:26 -13.8 °F /  -25.4 °C -18.0 °F /  -27.8 °C 30.75 in /  1041.2 hPa WSW 1.2 mph /  1.9 km/h 1.2 mph /  1.9 km/h 81 % 0.00 in /  0 mm 0.0 W/m2 CLR
06:27 -13.8 °F /  -25.4 °C -18.0 °F /  -27.8 °C 30.75 in /  1041.2 hPa WSW 1.2 mph /  1.9 km/h 1.2 mph /  1.9 km/h 81 % 0.00 in /  0 mm 0.0 W/m2 CLR
06:28 -13.8 °F /  -25.4 °C -18.0 °F /  -27.8 °C 30.75 in /  1041.2 hPa WSW 1.2 mph /  1.9 km/h   81 % 0.00 in /  0 mm 0.0 W/m2 CLR
06:32 -13.8 °F /  -25.4 °C -18.0 °F /  -27.8 °C 30.75 in /  1041.2 hPa WSW 3.5 mph /  5.6 km/h 3.5 mph /  5.6 km/h 81 % 0.00 in /  0 mm 0.0 W/m2 CLR
06:36 -13.8 °F /  -25.4 °C -18.0 °F /  -27.8 °C 30.75 in /  1041.2 hPa WSW 3.5 mph /  5.6 km/h 3.5 mph /  5.6 km/h 81 % 0.00 in /  0 mm 0.0 W/m2 CLR
06:38 -13.8 °F /  -25.4 °C -18.0 °F /  -27.8 °C 30.75 in /  1041.2 hPa WSW 5.8 mph /  9.3 km/h 5.8 mph /  9.3 km/h 81 % 0.00 in /  0 mm 0.0 W/m2 CLR
06:43 -13.8 °F /  -25.4 °C -18.0 °F /  -27.8 °C 30.74 in /  1040.9 hPa North 5.0 mph /  8 km/h 5.0 mph /  8 km/h 81 % 0.00 in /  0 mm 0.0 W/m2 CLR
06:46 -13.8 °F /  -25.4 °C -18.0 °F /  -27.8 °C 30.75 in /  1041.2 hPa WSW 3.5 mph /  5.6 km/h 3.5 mph /  5.6 km/h 81 % 0.00 in /  0 mm 0.0 W/m2 CLR
06:49 -13.7 °F /  -25.4 °C -17.9 °F /  -27.7 °C 30.74 in /  1040.9 hPa North 8.1 mph /  13 km/h 8.1 mph /  13 km/h 81 % 0.00 in /  0 mm 0.0 W/m2 CLR
06:51 -13.6 °F /  -25.3 °C -17.8 °F /  -27.7 °C 30.75 in /  1041.2 hPa WSW 3.5 mph /  5.6 km/h 3.5 mph /  5.6 km/h 81 % 0.00 in /  0 mm 0.0 W/m2 CLR
06:56 -13.6 °F /  -25.3 °C -17.8 °F /  -27.7 °C 30.75 in /  1041.2 hPa West 4.6 mph /  7.4 km/h 4.6 mph /  7.4 km/h 81 % 0.00 in /  0 mm 0.0 W/m2 CLR
06:58 -13.5 °F /  -25.3 °C -17.7 °F /  -27.6 °C 30.75 in /  1041.2 hPa West 5.8 mph /  9.3 km/h 5.8 mph /  9.3 km/h 81 % 0.00 in /  0 mm 0.0 W/m2 CLR
07:03 -13.5 °F /  -25.3 °C -17.7 °F /  -27.6 °C 30.75 in /  1041.2 hPa West 3.5 mph /  5.6 km/h 3.5 mph /  5.6 km/h 81 % 0.00 in /  0 mm 0.0 W/m2 CLR
07:08 -13.5 °F /  -25.3 °C -17.7 °F /  -27.6 °C 30.75 in /  1041.2 hPa West 2.3 mph /  3.7 km/h 2.3 mph /  3.7 km/h 81 % 0.00 in /  0 mm 0.0 W/m2 CLR
07:13 -13.6 °F /  -25.3 °C -17.8 °F /  -27.7 °C 30.74 in /  1040.9 hPa West 3.5 mph /  5.6 km/h 3.5 mph /  5.6 km/h 81 % 0.00 in /  0 mm 0.0 W/m2 CLR
07:17 -13.6 °F /  -25.3 °C -17.8 °F /  -27.7 °C 30.75 in /  1041.2 hPa WSW 3.5 mph /  5.6 km/h 3.5 mph /  5.6 km/h 81 % 0.00 in /  0 mm 5.0 W/m2 CLR
07:19 -13.6 °F /  -25.3 °C -17.8 °F /  -27.7 °C 30.75 in /  1041.2 hPa WSW 3.5 mph /  5.6 km/h 3.5 mph /  5.6 km/h 81 % 0.00 in /  0 mm 5.0 W/m2 CLR
07:24 -13.5 °F /  -25.3 °C -17.7 °F /  -27.6 °C 30.74 in /  1040.9 hPa WSW 3.5 mph /  5.6 km/h 3.5 mph /  5.6 km/h 81 % 0.00 in /  0 mm 9.0 W/m2 CLR
07:25 -13.5 °F /  -25.3 °C -17.7 °F /  -27.6 °C 30.74 in /  1040.9 hPa WSW 3.5 mph /  5.6 km/h 3.5 mph /  5.6 km/h 81 % 0.00 in /  0 mm 9.0 W/m2 CLR
07:26 -13.5 °F /  -25.3 °C -17.7 °F /  -27.6 °C 30.74 in /  1040.9 hPa WSW 2.3 mph /  3.7 km/h 2.3 mph /  3.7 km/h 81 % 0.00 in /  0 mm 9.0 W/m2 CLR
07:31 -13.4 °F /  -25.2 °C -17.6 °F /  -27.6 °C 30.74 in /  1040.9 hPa SW 4.6 mph /  7.4 km/h 4.6 mph /  7.4 km/h 81 % 0.00 in /  0 mm 12.0 W/m2 CLR
07:36 -13.2 °F /  -25.1 °C -17.4 °F /  -27.4 °C 30.74 in /  1040.9 hPa WSW 5.8 mph /  9.3 km/h 5.8 mph /  9.3 km/h 81 % 0.00 in /  0 mm 16.0 W/m2 CLR
07:37 -13.2 °F /  -25.1 °C -17.4 °F /  -27.4 °C 30.74 in /  1040.9 hPa WSW 5.0 mph /  8 km/h 5.0 mph /  8 km/h 81 % 0.00 in /  0 mm 16.0 W/m2 CLR
07:38 -13.1 °F /  -25.1 °C -17.3 °F /  -27.4 °C 30.74 in /  1040.9 hPa SW 5.8 mph /  9.3 km/h 5.8 mph /  9.3 km/h 81 % 0.00 in /  0 mm 18.0 W/m2 CLR
07:42 -13.0 °F /  -25 °C -17.2 °F /  -27.3 °C 30.74 in /  1040.9 hPa SW 2.3 mph /  3.7 km/h 2.3 mph /  3.7 km/h 81 % 0.00 in /  0 mm 26.0 W/m2 CLR
07:46 -12.8 °F /  -24.9 °C -17.0 °F /  -27.2 °C 30.74 in /  1040.9 hPa WSW 5.0 mph /  8 km/h 5.0 mph /  8 km/h 81 % 0.00 in /  0 mm 35.0 W/m2 CLR
07:51 -12.6 °F /  -24.8 °C -16.8 °F /  -27.1 °C 30.74 in /  1040.9 hPa North 6.0 mph /  9.7 km/h 6.0 mph /  9.7 km/h 81 % 0.00 in /  0 mm 47.0 W/m2 CLR
07:52 -12.6 °F /  -24.8 °C -16.8 °F /  -27.1 °C 30.74 in /  1040.9 hPa SW 8.1 mph /  13 km/h 8.1 mph /  13 km/h 81 % 0.00 in /  0 mm 49.0 W/m2 CLR
07:55 -12.4 °F /  -24.7 °C -16.6 °F /  -27 °C 30.74 in /  1040.9 hPa West 3.5 mph /  5.6 km/h 3.5 mph /  5.6 km/h 81 % 0.00 in /  0 mm 56.0 W/m2 CLR
07:59 -12.3 °F /  -24.6 °C -16.5 °F /  -26.9 °C 30.74 in /  1040.9 hPa West 3.5 mph /  5.6 km/h 3.5 mph /  5.6 km/h 81 % 0.00 in /  0 mm 65.0 W/m2 CLR
08:03 -12.2 °F /  -24.6 °C -16.4 °F /  -26.9 °C 30.74 in /  1040.9 hPa SW 6.9 mph /  11.1 km/h 6.9 mph /  11.1 km/h 81 % 0.00 in /  0 mm 74.0 W/m2 CLR
08:05 -12.1 °F /  -24.5 °C -16.3 °F /  -26.8 °C 30.74 in /  1040.9 hPa WSW 5.8 mph /  9.3 km/h 5.8 mph /  9.3 km/h 81 % 0.00 in /  0 mm 77.0 W/m2 CLR
08:10 -11.9 °F /  -24.4 °C -16.1 °F /  -26.7 °C 30.74 in /  1040.9 hPa WSW 3.5 mph /  5.6 km/h 3.5 mph /  5.6 km/h 81 % 0.00 in /  0 mm 93.0 W/m2 CLR
08:12 -11.8 °F /  -24.3 °C -16.0 °F /  -26.7 °C 30.74 in /  1040.9 hPa WSW 6.0 mph /  9.7 km/h 6.0 mph /  9.7 km/h 81 % 0.00 in /  0 mm 98.0 W/m2 CLR
08:17 -11.5 °F /  -24.2 °C -15.7 °F /  -26.5 °C 30.74 in /  1040.9 hPa WSW 3.5 mph /  5.6 km/h 3.5 mph /  5.6 km/h 81 % 0.00 in /  0 mm 113.0 W/m2 CLR
08:21 -11.3 °F /  -24.1 °C -15.5 °F /  -26.4 °C 30.74 in /  1040.9 hPa West 6.9 mph /  11.1 km/h 6.9 mph /  11.1 km/h 81 % 0.00 in /  0 mm 123.0 W/m2 CLR
08:23 -11.2 °F /  -24 °C -15.4 °F /  -26.3 °C 30.74 in /  1040.9 hPa West 5.8 mph /  9.3 km/h 5.8 mph /  9.3 km/h 81 % 0.00 in /  0 mm 132.0 W/m2 CLR
08:27 -10.9 °F /  -23.8 °C -15.1 °F /  -26.2 °C 30.74 in /  1040.9 hPa North 3.5 mph /  5.6 km/h 3.5 mph /  5.6 km/h 81 % 0.00 in /  0 mm 141.0 W/m2 CLR
08:30 -10.7 °F /  -23.7 °C -14.9 °F /  -26.1 °C 30.75 in /  1041.2 hPa WSW 3.0 mph /  4.8 km/h 3.0 mph /  4.8 km/h 81 % 0.00 in /  0 mm 149.0 W/m2 CLR
08:34 -10.5 °F /  -23.6 °C -14.7 °F /  -25.9 °C 30.74 in /  1040.9 hPa Calm   0.4 mph /  0.6 km/h 81 % 0.00 in /  0 mm 163.0 W/m2 CLR
08:36 -10.3 °F /  -23.5 °C -14.5 °F /  -25.8 °C 30.74 in /  1040.9 hPa SW 3.5 mph /  5.6 km/h 3.5 mph /  5.6 km/h 81 % 0.00 in /  0 mm 169.0 W/m2 CLR
08:41 -9.9 °F /  -23.3 °C -14.1 °F /  -25.6 °C 30.74 in /  1040.9 hPa SW 1.2 mph /  1.9 km/h 1.2 mph /  1.9 km/h 81 % 0.00 in /  0 mm 185.0 W/m2 CLR
08:43 -9.9 °F /  -23.3 °C -14.4 °F /  -25.8 °C 30.74 in /  1040.9 hPa SW 2.3 mph /  3.7 km/h 2.3 mph /  3.7 km/h 80 % 0.00 in /  0 mm 190.0 W/m2 CLR
08:48 -9.7 °F /  -23.2 °C -14.2 °F /  -25.7 °C 30.74 in /  1040.9 hPa SW 3.5 mph /  5.6 km/h 3.5 mph /  5.6 km/h 80 % 0.00 in /  0 mm 204.0 W/m2 CLR
08:50 -9.6 °F /  -23.1 °C -14.1 °F /  -25.6 °C 30.74 in /  1040.9 hPa SSW 3.5 mph /  5.6 km/h 3.5 mph /  5.6 km/h 80 % 0.00 in /  0 mm 213.0 W/m2 CLR
08:55 -9.6 °F /  -23.1 °C -14.3 °F /  -25.7 °C 30.74 in /  1040.9 hPa SSW 6.9 mph /  11.1 km/h 6.9 mph /  11.1 km/h 79 % 0.00 in /  0 mm 229.0 W/m2 CLR
08:58 -9.5 °F /  -23.1 °C -14.2 °F /  -25.7 °C 30.73 in /  1040.5 hPa WSW 3.5 mph /  5.6 km/h 3.5 mph /  5.6 km/h 79 % 0.00 in /  0 mm 236.0 W/m2 CLR
08:59 -9.5 °F /  -23.1 °C -14.2 °F /  -25.7 °C 30.73 in /  1040.5 hPa WSW 3.5 mph /  5.6 km/h 3.5 mph /  5.6 km/h 79 % 0.00 in /  0 mm 239.0 W/m2 CLR
09:03 -9.5 °F /  -23.1 °C -14.5 °F /  -25.8 °C 30.74 in /  1040.9 hPa WSW 7.0 mph /  11.3 km/h 7.0 mph /  11.3 km/h 78 % 0.00 in /  0 mm 251.0 W/m2 CLR
09:09 -9.9 °F /  -23.3 °C -14.9 °F /  -26.1 °C 30.73 in /  1040.5 hPa SW 10.4 mph /  16.7 km/h 10.4 mph /  16.7 km/h 78 % 0.00 in /  0 mm 267.0 W/m2 CLR
09:11 -9.9 °F /  -23.3 °C -14.9 °F /  -26.1 °C 30.73 in /  1040.5 hPa SW 9.2 mph /  14.8 km/h 9.2 mph /  14.8 km/h 78 % 0.00 in /  0 mm 271.0 W/m2 CLR
09:12 -9.8 °F /  -23.2 °C -14.8 °F /  -26 °C 30.74 in /  1040.9 hPa SW 9.2 mph /  14.8 km/h 9.2 mph /  14.8 km/h 78 % 0.00 in /  0 mm 272.0 W/m2 CLR
09:17 -9.5 °F /  -23.1 °C -14.5 °F /  -25.8 °C 30.73 in /  1040.5 hPa SSW 8.1 mph /  13 km/h 8.1 mph /  13 km/h 78 % 0.00 in /  0 mm 283.0 W/m2 CLR
09:18 -9.5 °F /  -23.1 °C -14.2 °F /  -25.7 °C 30.73 in /  1040.5 hPa SW 8.1 mph /  13 km/h 8.1 mph /  13 km/h 79 % 0.00 in /  0 mm 287.0 W/m2 CLR
09:23 -9.2 °F /  -22.9 °C -14.2 °F /  -25.7 °C 30.73 in /  1040.5 hPa SW 8.1 mph /  13 km/h 8.1 mph /  13 km/h 78 % 0.00 in /  0 mm 295.0 W/m2 CLR
09:28 -8.9 °F /  -22.7 °C -13.9 °F /  -25.5 °C 30.73 in /  1040.5 hPa North 11.5 mph /  18.5 km/h 11.5 mph /  18.5 km/h 78 % 0.00 in /  0 mm 308.0 W/m2 CLR
09:30 -8.9 °F /  -22.7 °C -13.9 °F /  -25.5 °C 30.73 in /  1040.5 hPa SW 8.1 mph /  13 km/h 8.1 mph /  13 km/h 78 % 0.00 in /  0 mm 309.0 W/m2 CLR
09:31 -8.8 °F /  -22.7 °C -13.8 °F /  -25.4 °C 30.73 in /  1040.5 hPa SW 8.1 mph /  13 km/h 8.1 mph /  13 km/h 78 % 0.00 in /  0 mm 313.0 W/m2 CLR
09:36 -8.6 °F /  -22.6 °C -13.6 °F /  -25.3 °C 30.73 in /  1040.5 hPa North 12.7 mph /  20.4 km/h 12.7 mph /  20.4 km/h 78 % 0.00 in /  0 mm 322.0 W/m2 CLR
09:40 -8.4 °F /  -22.4 °C -13.7 °F /  -25.4 °C 30.73 in /  1040.5 hPa SW 10.0 mph /  16.1 km/h 10.0 mph /  16.1 km/h 77 % 0.00 in /  0 mm 332.0 W/m2 CLR
09:44 -8.2 °F /  -22.3 °C -13.5 °F /  -25.3 °C 30.73 in /  1040.5 hPa SW 11.5 mph /  18.5 km/h 11.5 mph /  18.5 km/h 77 % 0.00 in /  0 mm 336.0 W/m2 CLR
09:49 -8.0 °F /  -22.2 °C -13.3 °F /  -25.2 °C 30.73 in /  1040.5 hPa WSW 10.4 mph /  16.7 km/h 10.4 mph /  16.7 km/h 77 % 0.00 in /  0 mm 346.0 W/m2 CLR
09:54 -7.8 °F /  -22.1 °C -13.1 °F /  -25.1 °C 30.73 in /  1040.5 hPa SSW 12.7 mph /  20.4 km/h 12.7 mph /  20.4 km/h 77 % 0.00 in /  0 mm 357.0 W/m2 CLR
09:58 -7.8 °F /  -22.1 °C -13.4 °F /  -25.2 °C 30.73 in /  1040.5 hPa WSW 11.5 mph /  18.5 km/h 11.5 mph /  18.5 km/h 76 % 0.00 in /  0 mm 362.0 W/m2 CLR
10:00 -7.7 °F /  -22.1 °C -13.0 °F /  -25 °C 30.73 in /  1040.5 hPa WSW 11.5 mph /  18.5 km/h 11.5 mph /  18.5 km/h 77 % 0.00 in /  0 mm 366.0 W/m2 CLR
10:05 -7.3 °F /  -21.8 °C -12.9 °F /  -24.9 °C 30.73 in /  1040.5 hPa WSW 11.5 mph /  18.5 km/h 11.5 mph /  18.5 km/h 76 % 0.00 in /  0 mm 374.0 W/m2 CLR
10:06 -7.2 °F /  -21.8 °C -12.8 °F /  -24.9 °C 30.73 in /  1040.5 hPa West 11.5 mph /  18.5 km/h 11.5 mph /  18.5 km/h 76 % 0.00 in /  0 mm 376.0 W/m2 CLR
10:11 -7.0 °F /  -21.7 °C -12.6 °F /  -24.8 °C 30.73 in /  1040.5 hPa West 9.2 mph /  14.8 km/h 9.2 mph /  14.8 km/h 76 % 0.00 in /  0 mm 383.0 W/m2 CLR
10:16 -6.6 °F /  -21.4 °C -12.2 °F /  -24.6 °C 30.73 in /  1040.5 hPa North 11.5 mph /  18.5 km/h 11.5 mph /  18.5 km/h 76 % 0.00 in /  0 mm 390.0 W/m2 CLR
10:18 -6.4 °F /  -21.3 °C -12.0 °F /  -24.4 °C 30.72 in /  1040.2 hPa SW 6.9 mph /  11.1 km/h 6.9 mph /  11.1 km/h 76 % 0.00 in /  0 mm 394.0 W/m2 CLR
10:23 -6.2 °F /  -21.2 °C -12.1 °F /  -24.5 °C 30.72 in /  1040.2 hPa WSW 8.1 mph /  13 km/h 8.1 mph /  13 km/h 75 % 0.00 in /  0 mm 401.0 W/m2 CLR
10:24 -6.1 °F /  -21.2 °C -12.0 °F /  -24.4 °C 30.72 in /  1040.2 hPa WSW 9.2 mph /  14.8 km/h 9.2 mph /  14.8 km/h 75 % 0.00 in /  0 mm 403.0 W/m2 CLR
10:29 -5.9 °F /  -21.1 °C -11.8 °F /  -24.3 °C 30.72 in /  1040.2 hPa WSW 8.1 mph /  13 km/h 8.1 mph /  13 km/h 75 % 0.00 in /  0 mm 410.0 W/m2 CLR
10:30 -5.9 °F /  -21.1 °C -11.8 °F /  -24.3 °C 30.72 in /  1040.2 hPa WSW 8.1 mph /  13 km/h 8.1 mph /  13 km/h 75 % 0.00 in /  0 mm 413.0 W/m2 CLR
10:34 -5.5 °F /  -20.8 °C -11.4 °F /  -24.1 °C 30.72 in /  1040.2 hPa WSW 10.4 mph /  16.7 km/h 10.4 mph /  16.7 km/h 75 % 0.00 in /  0 mm 418.0 W/m2 CLR
10:35 -5.5 °F /  -20.8 °C -11.7 °F /  -24.3 °C 30.71 in /  1039.8 hPa WSW 9.2 mph /  14.8 km/h 9.2 mph /  14.8 km/h 74 % 0.00 in /  0 mm 418.0 W/m2 CLR
10:40 -5.3 °F /  -20.7 °C -11.5 °F /  -24.2 °C 30.71 in /  1039.8 hPa WSW 9.2 mph /  14.8 km/h 9.2 mph /  14.8 km/h 74 % 0.00 in /  0 mm 424.0 W/m2 CLR
10:46 -4.8 °F /  -20.4 °C -11.0 °F /  -23.9 °C 30.71 in /  1039.8 hPa SW 8.0 mph /  12.9 km/h 8.0 mph /  12.9 km/h 74 % 0.00 in /  0 mm 431.0 W/m2 CLR
10:51 -4.4 °F /  -20.2 °C -10.6 °F /  -23.7 °C 30.70 in /  1039.5 hPa North 9.2 mph /  14.8 km/h 9.2 mph /  14.8 km/h 74 % 0.00 in /  0 mm 438.0 W/m2 CLR
10:52 -4.3 °F /  -20.2 °C -10.8 °F /  -23.8 °C 30.70 in /  1039.5 hPa WSW 8.1 mph /  13 km/h 8.1 mph /  13 km/h 73 % 0.00 in /  0 mm 438.0 W/m2 CLR
10:53 -4.3 °F /  -20.2 °C -10.8 °F /  -23.8 °C 30.70 in /  1039.5 hPa SW 9.2 mph /  14.8 km/h 9.2 mph /  14.8 km/h 73 % 0.00 in /  0 mm 438.0 W/m2 CLR
10:58 -3.9 °F /  -19.9 °C -10.4 °F /  -23.6 °C 30.70 in /  1039.5 hPa WSW 10.4 mph /  16.7 km/h 10.4 mph /  16.7 km/h 73 % 0.00 in /  0 mm 445.0 W/m2 CLR
10:59 -3.9 °F /  -19.9 °C -10.4 °F /  -23.6 °C 30.70 in /  1039.5 hPa North 10.4 mph /  16.7 km/h 10.4 mph /  16.7 km/h 73 % 0.00 in /  0 mm 443.0 W/m2 CLR
11:01 -3.9 °F /  -19.9 °C -10.4 °F /  -23.6 °C 30.69 in /  1039.2 hPa SW 11.0 mph /  17.7 km/h 11.0 mph /  17.7 km/h 73 % 0.00 in /  0 mm 446.0 W/m2 CLR
11:04 -3.8 °F /  -19.9 °C -10.6 °F /  -23.7 °C 30.69 in /  1039.2 hPa SSW 9.2 mph /  14.8 km/h 9.2 mph /  14.8 km/h 72 % 0.00 in /  0 mm 448.0 W/m2 CLR
11:07 -3.6 °F /  -19.8 °C -10.4 °F /  -23.6 °C 30.69 in /  1039.2 hPa SW 4.6 mph /  7.4 km/h 4.6 mph /  7.4 km/h 72 % 0.00 in /  0 mm 450.0 W/m2 CLR
11:10 -3.4 °F /  -19.7 °C -10.2 °F /  -23.4 °C 30.69 in /  1039.2 hPa SW 6.9 mph /  11.1 km/h 6.9 mph /  11.1 km/h 72 % 0.00 in /  0 mm 454.0 W/m2 CLR
11:15 -3.1 °F /  -19.5 °C -9.9 °F /  -23.3 °C 30.69 in /  1039.2 hPa SW 8.1 mph /  13 km/h 8.1 mph /  13 km/h 72 % 0.00 in /  0 mm 457.0 W/m2 CLR
11:16 -3.1 °F /  -19.5 °C -9.9 °F /  -23.3 °C 30.69 in /  1039.2 hPa SW 9.0 mph /  14.5 km/h 9.0 mph /  14.5 km/h 72 % 0.00 in /  0 mm 457.0 W/m2 CLR
11:17 -3.1 °F /  -19.5 °C -9.9 °F /  -23.3 °C 30.69 in /  1039.2 hPa WSW 10.4 mph /  16.7 km/h 10.4 mph /  16.7 km/h 72 % 0.00 in /  0 mm 455.0 W/m2 CLR
11:22 -2.8 °F /  -19.3 °C -9.6 °F /  -23.1 °C 30.68 in /  1038.8 hPa SW 7.0 mph /  11.3 km/h 7.0 mph /  11.3 km/h 72 % 0.00 in /  0 mm 459.0 W/m2 CLR
11:26 -2.4 °F /  -19.1 °C -9.2 °F /  -22.9 °C 30.68 in /  1038.8 hPa West 8.1 mph /  13 km/h 8.1 mph /  13 km/h 72 % 0.00 in /  0 mm 462.0 W/m2 CLR
11:27 -2.3 °F /  -19.1 °C -9.1 °F /  -22.8 °C 30.68 in /  1038.8 hPa WSW 10.4 mph /  16.7 km/h 10.4 mph /  16.7 km/h 72 % 0.00 in /  0 mm 462.0 W/m2 CLR
11:31 -1.9 °F /  -18.8 °C -8.7 °F /  -22.6 °C 30.68 in /  1038.8 hPa SW 5.8 mph /  9.3 km/h 5.8 mph /  9.3 km/h 72 % 0.00 in /  0 mm 466.0 W/m2 CLR
11:33 -1.8 °F /  -18.8 °C -8.3 °F /  -22.4 °C 30.67 in /  1038.5 hPa WSW 6.9 mph /  11.1 km/h 6.9 mph /  11.1 km/h 73 % 0.00 in /  0 mm 464.0 W/m2 CLR
11:38 -1.3 °F /  -18.5 °C -8.1 °F /  -22.3 °C 30.67 in /  1038.5 hPa WSW 10.4 mph /  16.7 km/h 10.4 mph /  16.7 km/h 72 % 0.00 in /  0 mm 468.0 W/m2 CLR
11:43 -1.0 °F /  -18.3 °C -7.6 °F /  -22 °C 30.67 in /  1038.5 hPa SW 11.5 mph /  18.5 km/h 11.5 mph /  18.5 km/h 73 % 0.00 in /  0 mm 469.0 W/m2 CLR
11:44 -1.0 °F /  -18.3 °C -7.6 °F /  -22 °C 30.67 in /  1038.5 hPa West 10.4 mph /  16.7 km/h 10.4 mph /  16.7 km/h 73 % 0.00 in /  0 mm 466.0 W/m2 CLR
11:46 -0.8 °F /  -18.2 °C -7.4 °F /  -21.9 °C 30.67 in /  1038.5 hPa WSW 8.1 mph /  13 km/h 8.1 mph /  13 km/h 73 % 0.00 in /  0 mm 468.0 W/m2 CLR
11:51 -0.3 °F /  -17.9 °C -6.9 °F /  -21.6 °C 30.66 in /  1038.1 hPa WSW 6.9 mph /  11.1 km/h 6.9 mph /  11.1 km/h 73 % 0.00 in /  0 mm 469.0 W/m2 CLR
11:52 -0.3 °F /  -17.9 °C -6.9 °F /  -21.6 °C 30.66 in /  1038.1 hPa SW 6.9 mph /  11.1 km/h 6.9 mph /  11.1 km/h 73 % 0.00 in /  0 mm 469.0 W/m2 CLR
11:57 0.0 °F /  -17.8 °C -6.9 °F /  -21.6 °C 30.66 in /  1038.1 hPa SW 5.0 mph /  8 km/h 5.0 mph /  8 km/h 72 % 0.00 in /  0 mm 469.0 W/m2 CLR
11:58 0.0 °F /  -17.8 °C -6.9 °F /  -21.6 °C 30.66 in /  1038.1 hPa SW 6.9 mph /  11.1 km/h 6.9 mph /  11.1 km/h 72 % 0.00 in /  0 mm 469.0 W/m2 CLR
12:03 0.0 °F /  -17.8 °C -6.9 °F /  -21.6 °C 30.65 in /  1037.8 hPa WSW 8.1 mph /  13 km/h 8.1 mph /  13 km/h 72 % 0.00 in /  0 mm 471.0 W/m2 CLR
12:08 0.1 °F /  -17.7 °C -6.8 °F /  -21.6 °C 30.65 in /  1037.8 hPa WSW 8.1 mph /  13 km/h 8.1 mph /  13 km/h 72 % 0.00 in /  0 mm 468.0 W/m2 CLR
12:11 0.2 °F /  -17.7 °C -6.7 °F /  -21.5 °C 30.65 in /  1037.8 hPa SW 9.2 mph /  14.8 km/h 9.2 mph /  14.8 km/h 72 % 0.00 in /  0 mm 468.0 W/m2 CLR
12:14 0.2 °F /  -17.7 °C -6.7 °F /  -21.5 °C 30.65 in /  1037.8 hPa SW 6.9 mph /  11.1 km/h 6.9 mph /  11.1 km/h 72 % 0.00 in /  0 mm 468.0 W/m2 CLR
12:19 0.4 °F /  -17.6 °C -6.5 °F /  -21.4 °C 30.64 in /  1037.5 hPa WSW 8.1 mph /  13 km/h 8.1 mph /  13 km/h 72 % 0.00 in /  0 mm 466.0 W/m2 CLR
12:20 0.4 °F /  -17.6 °C -6.5 °F /  -21.4 °C 30.64 in /  1037.5 hPa SSW 3.5 mph /  5.6 km/h   72 % 0.00 in /  0 mm 466.0 W/m2 CLR
12:25 0.4 °F /  -17.6 °C -6.8 °F /  -21.6 °C 30.64 in /  1037.5 hPa SW 8.1 mph /  13 km/h 8.1 mph /  13 km/h 71 % 0.00 in /  0 mm 462.0 W/m2 CLR
12:26 0.4 °F /  -17.6 °C -6.8 °F /  -21.6 °C 30.64 in /  1037.5 hPa SW 6.0 mph /  9.7 km/h 6.0 mph /  9.7 km/h 71 % 0.00 in /  0 mm 462.0 W/m2 CLR
12:31 0.3 °F /  -17.6 °C -6.9 °F /  -21.6 °C 30.64 in /  1037.5 hPa SW 9.2 mph /  14.8 km/h 9.2 mph /  14.8 km/h 71 % 0.00 in /  0 mm 461.0 W/m2 CLR
12:33 0.3 °F /  -17.6 °C -6.9 °F /  -21.6 °C 30.64 in /  1037.5 hPa SW 6.9 mph /  11.1 km/h 6.9 mph /  11.1 km/h 71 % 0.00 in /  0 mm 461.0 W/m2 CLR
12:38 0.4 °F /  -17.6 °C -6.5 °F /  -21.4 °C 30.63 in /  1037.1 hPa WSW 6.0 mph /  9.7 km/h 6.0 mph /  9.7 km/h 72 % 0.00 in /  0 mm 457.0 W/m2 CLR
12:40 0.5 °F /  -17.5 °C -6.4 °F /  -21.3 °C 30.63 in /  1037.1 hPa WSW 8.1 mph /  13 km/h 8.1 mph /  13 km/h 72 % 0.00 in /  0 mm 454.0 W/m2 CLR
12:44 0.7 °F /  -17.4 °C -6.2 °F /  -21.2 °C 30.62 in /  1036.8 hPa North 5.0 mph /  8 km/h 5.0 mph /  8 km/h 72 % 0.00 in /  0 mm 454.0 W/m2 CLR
12:46 0.8 °F /  -17.3 °C -6.1 °F /  -21.2 °C 30.62 in /  1036.8 hPa SSW 5.8 mph /  9.3 km/h 5.8 mph /  9.3 km/h 72 % 0.00 in /  0 mm 450.0 W/m2 CLR
12:51 1.2 °F /  -17.1 °C -5.4 °F /  -20.8 °C 30.62 in /  1036.8 hPa WSW 6.9 mph /  11.1 km/h 6.9 mph /  11.1 km/h 73 % 0.00 in /  0 mm 446.0 W/m2 CLR
12:52 1.2 °F /  -17.1 °C -5.4 °F /  -20.8 °C 30.62 in /  1036.8 hPa SW 8.1 mph /  13 km/h 8.1 mph /  13 km/h 73 % 0.00 in /  0 mm 445.0 W/m2 CLR
12:57 1.4 °F /  -17 °C -5.5 °F /  -20.8 °C 30.62 in /  1036.8 hPa WSW 8.1 mph /  13 km/h 8.1 mph /  13 km/h 72 % 0.00 in /  0 mm 443.0 W/m2 CLR
13:02 1.4 °F /  -17 °C -5.8 °F /  -21 °C 30.61 in /  1036.5 hPa SSW 8.1 mph /  13 km/h 8.1 mph /  13 km/h 71 % 0.00 in /  0 mm 436.0 W/m2 CLR
13:08 1.5 °F /  -16.9 °C -5.4 °F /  -20.8 °C 30.61 in /  1036.5 hPa SW 6.9 mph /  11.1 km/h 6.9 mph /  11.1 km/h 72 % 0.00 in /  0 mm 431.0 W/m2 CLR
13:09 1.5 °F /  -16.9 °C -5.4 °F /  -20.8 °C 30.61 in /  1036.5 hPa North 6.0 mph /  9.7 km/h 6.0 mph /  9.7 km/h 72 % 0.00 in /  0 mm 429.0 W/m2 CLR
13:14 1.5 °F /  -16.9 °C -5.7 °F /  -20.9 °C 30.61 in /  1036.5 hPa SW 10.4 mph /  16.7 km/h 10.4 mph /  16.7 km/h 71 % 0.00 in /  0 mm 424.0 W/m2 CLR
13:15 1.4 °F /  -17 °C -5.8 °F /  -21 °C 30.61 in /  1036.5 hPa SW 11.5 mph /  18.5 km/h 11.5 mph /  18.5 km/h 71 % 0.00 in /  0 mm 422.0 W/m2 CLR
13:21 1.3 °F /  -17.1 °C -5.9 °F /  -21.1 °C 30.60 in /  1036.1 hPa North 4.6 mph /  7.4 km/h 4.6 mph /  7.4 km/h 71 % 0.00 in /  0 mm 415.0 W/m2 CLR
13:25 1.2 °F /  -17.1 °C -6.0 °F /  -21.1 °C 30.60 in /  1036.1 hPa SW 8.1 mph /  13 km/h 8.1 mph /  13 km/h 71 % 0.00 in /  0 mm 410.0 W/m2 CLR
13:27 1.2 °F /  -17.1 °C -5.7 °F /  -20.9 °C 30.60 in /  1036.1 hPa SW 11.5 mph /  18.5 km/h 11.5 mph /  18.5 km/h 72 % 0.00 in /  0 mm 406.0 W/m2 CLR
13:32 1.3 °F /  -17.1 °C -5.6 °F /  -20.9 °C 30.60 in /  1036.1 hPa WSW 4.0 mph /  6.4 km/h 4.0 mph /  6.4 km/h 72 % 0.00 in /  0 mm 403.0 W/m2 CLR
13:37 1.5 °F /  -16.9 °C -5.4 °F /  -20.8 °C 30.60 in /  1036.1 hPa North 10.4 mph /  16.7 km/h 10.4 mph /  16.7 km/h 72 % 0.00 in /  0 mm 392.0 W/m2 CLR
13:39 1.6 °F /  -16.9 °C -5.3 °F /  -20.7 °C 30.59 in /  1035.8 hPa SW 7.0 mph /  11.3 km/h 7.0 mph /  11.3 km/h 72 % 0.00 in /  0 mm 388.0 W/m2 CLR
13:43 1.7 °F /  -16.8 °C -5.2 °F /  -20.7 °C 30.59 in /  1035.8 hPa SW 8.1 mph /  13 km/h 8.1 mph /  13 km/h 72 % 0.00 in /  0 mm 385.0 W/m2 CLR
13:45 1.8 °F /  -16.8 °C -5.2 °F /  -20.7 °C 30.59 in /  1035.8 hPa SSW 6.9 mph /  11.1 km/h 6.9 mph /  11.1 km/h 72 % 0.00 in /  0 mm 380.0 W/m2 CLR
13:48 1.8 °F /  -16.8 °C -5.2 °F /  -20.7 °C 30.59 in /  1035.8 hPa SSW 6.9 mph /  11.1 km/h 6.9 mph /  11.1 km/h 72 % 0.00 in /  0 mm 374.0 W/m2 CLR
13:53 1.7 °F /  -16.8 °C -5.2 °F /  -20.7 °C 30.58 in /  1035.4 hPa SSW 10.4 mph /  16.7 km/h 10.4 mph /  16.7 km/h 72 % 0.00 in /  0 mm 367.0 W/m2 CLR
13:59 1.7 °F /  -16.8 °C -5.2 °F /  -20.7 °C 30.58 in /  1035.4 hPa SW 9.2 mph /  14.8 km/h 9.2 mph /  14.8 km/h 72 % 0.00 in /  0 mm 357.0 W/m2 CLR
14:02 1.7 °F /  -16.8 °C -5.2 °F /  -20.7 °C 30.58 in /  1035.4 hPa SW 11.5 mph /  18.5 km/h 11.5 mph /  18.5 km/h 72 % 0.00 in /  0 mm 350.0 W/m2 CLR
14:05 1.8 °F /  -16.8 °C -5.2 °F /  -20.7 °C 30.58 in /  1035.4 hPa SSW 11.5 mph /  18.5 km/h 11.5 mph /  18.5 km/h 72 % 0.00 in /  0 mm 346.0 W/m2 CLR
14:10 2.0 °F /  -16.7 °C -5.0 °F /  -20.6 °C 30.58 in /  1035.4 hPa SW 6.9 mph /  11.1 km/h   72 % 0.00 in /  0 mm 334.0 W/m2 CLR
14:11 2.1 °F /  -16.6 °C -4.9 °F /  -20.5 °C 30.57 in /  1035.1 hPa WSW 2.3 mph /  3.7 km/h 2.3 mph /  3.7 km/h 72 % 0.00 in /  0 mm 332.0 W/m2 CLR
14:16 2.3 °F /  -16.5 °C -4.7 °F /  -20.4 °C 30.57 in /  1035.1 hPa SW 3.5 mph /  5.6 km/h 3.5 mph /  5.6 km/h 72 % 0.00 in /  0 mm 320.0 W/m2 CLR
14:17 2.4 °F /  -16.4 °C -4.6 °F /  -20.3 °C 30.57 in /  1035.1 hPa SW 3.5 mph /  5.6 km/h 3.5 mph /  5.6 km/h 72 % 0.00 in /  0 mm 320.0 W/m2 CLR
14:22 2.3 °F /  -16.5 °C -4.7 °F /  -20.4 °C 30.57 in /  1035.1 hPa SW 9.2 mph /  14.8 km/h 9.2 mph /  14.8 km/h 72 % 0.00 in /  0 mm 311.0 W/m2 CLR
14:24 2.1 °F /  -16.6 °C -4.9 °F /  -20.5 °C 30.57 in /  1035.1 hPa SSW 9.2 mph /  14.8 km/h 9.2 mph /  14.8 km/h 72 % 0.00 in /  0 mm 308.0 W/m2 CLR
14:29 1.9 °F /  -16.7 °C -5.1 °F /  -20.6 °C 30.57 in /  1035.1 hPa SW 11.5 mph /  18.5 km/h 11.5 mph /  18.5 km/h 72 % 0.00 in /  0 mm 295.0 W/m2 CLR
14:30 1.9 °F /  -16.7 °C -5.1 °F /  -20.6 °C 30.57 in /  1035.1 hPa West 10.4 mph /  16.7 km/h 10.4 mph /  16.7 km/h 72 % 0.00 in /  0 mm 294.0 W/m2 CLR
14:34 2.0 °F /  -16.7 °C -4.7 °F /  -20.4 °C 30.57 in /  1035.1 hPa SW 6.9 mph /  11.1 km/h 6.9 mph /  11.1 km/h 73 % 0.00 in /  0 mm 283.0 W/m2 CLR
14:39 2.4 °F /  -16.4 °C -4.3 °F /  -20.2 °C 30.57 in /  1035.1 hPa SSW 8.1 mph /  13 km/h 8.1 mph /  13 km/h 73 % 0.00 in /  0 mm 271.0 W/m2 CLR
14:40 2.4 °F /  -16.4 °C -4.3 °F /  -20.2 °C 30.57 in /  1035.1 hPa SSW 8.1 mph /  13 km/h 8.1 mph /  13 km/h 73 % 0.00 in /  0 mm 267.0 W/m2 CLR
14:45 2.4 °F /  -16.4 °C -4.6 °F /  -20.3 °C 30.57 in /  1035.1 hPa North 9.0 mph /  14.5 km/h 9.0 mph /  14.5 km/h 72 % 0.00 in /  0 mm 253.0 W/m2 CLR
14:46 2.5 °F /  -16.4 °C -4.5 °F /  -20.3 °C 30.57 in /  1035.1 hPa North 9.2 mph /  14.8 km/h 9.2 mph /  14.8 km/h 72 % 0.00 in /  0 mm 253.0 W/m2 CLR
14:51 2.4 °F /  -16.4 °C -4.6 °F /  -20.3 °C 30.57 in /  1035.1 hPa SW 11.5 mph /  18.5 km/h 11.5 mph /  18.5 km/h 72 % 0.00 in /  0 mm 239.0 W/m2 CLR
14:56 2.4 °F /  -16.4 °C -4.6 °F /  -20.3 °C 30.56 in /  1034.8 hPa SW 8.0 mph /  12.9 km/h 8.0 mph /  12.9 km/h 72 % 0.00 in /  0 mm 223.0 W/m2 CLR
15:01 2.3 °F /  -16.5 °C -4.7 °F /  -20.4 °C 30.56 in /  1034.8 hPa SW 9.2 mph /  14.8 km/h 9.2 mph /  14.8 km/h 72 % 0.00 in /  0 mm 207.0 W/m2 CLR
15:03 2.3 °F /  -16.5 °C -4.7 °F /  -20.4 °C 30.56 in /  1034.8 hPa SW 13.0 mph /  20.9 km/h 13.0 mph /  20.9 km/h 72 % 0.00 in /  0 mm 202.0 W/m2 CLR
15:04 2.2 °F /  -16.6 °C -4.8 °F /  -20.4 °C 30.55 in /  1034.4 hPa WSW 13.8 mph /  22.2 km/h 13.8 mph /  22.2 km/h 72 % 0.00 in /  0 mm 195.0 W/m2 CLR
15:08 2.4 °F /  -16.4 °C -4.6 °F /  -20.3 °C 30.55 in /  1034.4 hPa SW 9.2 mph /  14.8 km/h 9.2 mph /  14.8 km/h 72 % 0.00 in /  0 mm 185.0 W/m2 CLR
15:13 2.6 °F /  -16.3 °C -4.4 °F /  -20.2 °C 30.55 in /  1034.4 hPa SSW 6.9 mph /  11.1 km/h 6.9 mph /  11.1 km/h 72 % 0.00 in /  0 mm 169.0 W/m2 CLR
15:19 2.6 °F /  -16.3 °C -4.4 °F /  -20.2 °C 30.55 in /  1034.4 hPa SSW 6.9 mph /  11.1 km/h 6.9 mph /  11.1 km/h 72 % 0.00 in /  0 mm 148.0 W/m2 CLR
15:20 2.6 °F /  -16.3 °C -4.4 °F /  -20.2 °C 30.55 in /  1034.4 hPa SSW 6.9 mph /  11.1 km/h 6.9 mph /  11.1 km/h 72 % 0.00 in /  0 mm 144.0 W/m2 CLR
15:25 2.4 °F /  -16.4 °C -4.6 °F /  -20.3 °C 30.55 in /  1034.4 hPa SSW 9.2 mph /  14.8 km/h 9.2 mph /  14.8 km/h 72 % 0.00 in /  0 mm 132.0 W/m2 CLR
15:27 2.3 °F /  -16.5 °C -4.7 °F /  -20.4 °C 30.55 in /  1034.4 hPa South 6.9 mph /  11.1 km/h 6.9 mph /  11.1 km/h 72 % 0.00 in /  0 mm 125.0 W/m2 CLR
15:28 2.2 °F /  -16.6 °C -4.8 °F /  -20.4 °C 30.54 in /  1034.1 hPa SSW 8.1 mph /  13 km/h 8.1 mph /  13 km/h 72 % 0.00 in /  0 mm 121.0 W/m2 CLR
15:32 2.2 °F /  -16.6 °C -4.5 °F /  -20.3 °C 30.54 in /  1034.1 hPa SSW 9.2 mph /  14.8 km/h 9.2 mph /  14.8 km/h 73 % 0.00 in /  0 mm 111.0 W/m2 CLR
15:37 2.1 °F /  -16.6 °C -4.9 °F /  -20.5 °C 30.54 in /  1034.1 hPa SSW 5.0 mph /  8 km/h 5.0 mph /  8 km/h 72 % 0.00 in /  0 mm 97.0 W/m2 CLR
15:38 2.0 °F /  -16.7 °C -5.0 °F /  -20.6 °C 30.54 in /  1034.1 hPa SSW 6.9 mph /  11.1 km/h 6.9 mph /  11.1 km/h 72 % 0.00 in /  0 mm 90.0 W/m2 CLR
15:43 1.8 °F /  -16.8 °C -5.2 °F /  -20.7 °C 30.54 in /  1034.1 hPa SSW 11.5 mph /  18.5 km/h 11.5 mph /  18.5 km/h 72 % 0.00 in /  0 mm 25.0 W/m2 CLR
15:46 1.7 °F /  -16.8 °C -5.0 °F /  -20.6 °C 30.54 in /  1034.1 hPa SSW 11.5 mph /  18.5 km/h 11.5 mph /  18.5 km/h 73 % 0.00 in /  0 mm 23.0 W/m2 CLR
15:51 1.5 °F /  -16.9 °C -5.2 °F /  -20.7 °C 30.54 in /  1034.1 hPa SW 6.9 mph /  11.1 km/h 6.9 mph /  11.1 km/h 73 % 0.00 in /  0 mm 21.0 W/m2 CLR
15:52 1.5 °F /  -16.9 °C -5.2 °F /  -20.7 °C 30.54 in /  1034.1 hPa SSW 7.0 mph /  11.3 km/h 7.0 mph /  11.3 km/h 73 % 0.00 in /  0 mm 21.0 W/m2 CLR
15:54 1.4 °F /  -17 °C -5.3 °F /  -20.7 °C 30.53 in /  1033.7 hPa SSW 3.5 mph /  5.6 km/h 3.5 mph /  5.6 km/h 73 % 0.00 in /  0 mm 21.0 W/m2 CLR
15:59 1.4 °F /  -17 °C -5.0 °F /  -20.6 °C 30.53 in /  1033.7 hPa SSW 10.4 mph /  16.7 km/h 10.4 mph /  16.7 km/h 74 % 0.00 in /  0 mm 19.0 W/m2 CLR
16:03 1.3 °F /  -17.1 °C -4.8 °F /  -20.4 °C 30.53 in /  1033.7 hPa SSW 6.9 mph /  11.1 km/h 6.9 mph /  11.1 km/h 75 % 0.00 in /  0 mm 18.0 W/m2 CLR
16:06 1.2 °F /  -17.1 °C -4.9 °F /  -20.5 °C 30.52 in /  1033.4 hPa SSW 5.8 mph /  9.3 km/h 5.8 mph /  9.3 km/h 75 % 0.00 in /  0 mm 16.0 W/m2 CLR
16:11 1.0 °F /  -17.2 °C -4.8 °F /  -20.4 °C 30.52 in /  1033.4 hPa SSW 8.1 mph /  13 km/h 8.1 mph /  13 km/h 76 % 0.00 in /  0 mm 14.0 W/m2 CLR
16:13 1.0 °F /  -17.2 °C -4.8 °F /  -20.4 °C 30.52 in /  1033.4 hPa SSW 9.2 mph /  14.8 km/h 9.2 mph /  14.8 km/h 76 % 0.00 in /  0 mm 14.0 W/m2 CLR
16:16 0.9 °F /  -17.3 °C -4.9 °F /  -20.5 °C 30.52 in /  1033.4 hPa SSW 6.9 mph /  11.1 km/h 6.9 mph /  11.1 km/h 76 % 0.00 in /  0 mm 12.0 W/m2 CLR
16:18 0.9 °F /  -17.3 °C -4.9 °F /  -20.5 °C 30.52 in /  1033.4 hPa North 5.8 mph /  9.3 km/h 5.8 mph /  9.3 km/h 76 % 0.00 in /  0 mm 12.0 W/m2 CLR
16:23 0.8 °F /  -17.3 °C -5.0 °F /  -20.6 °C 30.51 in /  1033.1 hPa SSW 3.5 mph /  5.6 km/h 3.5 mph /  5.6 km/h 76 % 0.00 in /  0 mm 11.0 W/m2 CLR
16:28 0.7 °F /  -17.4 °C -5.1 °F /  -20.6 °C 30.51 in /  1033.1 hPa SSW 13.8 mph /  22.2 km/h 13.8 mph /  22.2 km/h 76 % 0.00 in /  0 mm 7.0 W/m2 CLR
16:29 0.7 °F /  -17.4 °C -4.8 °F /  -20.4 °C 30.51 in /  1033.1 hPa South 11.5 mph /  18.5 km/h 11.5 mph /  18.5 km/h 77 % 0.00 in /  0 mm 7.0 W/m2 CLR
16:34 0.6 °F /  -17.4 °C -4.9 °F /  -20.5 °C 30.51 in /  1033.1 hPa SSW 8.1 mph /  13 km/h 8.1 mph /  13 km/h 77 % 0.00 in /  0 mm 5.0 W/m2 CLR
16:39 0.5 °F /  -17.5 °C -5.0 °F /  -20.6 °C 30.51 in /  1033.1 hPa SSW 6.9 mph /  11.1 km/h 6.9 mph /  11.1 km/h 77 % 0.00 in /  0 mm 0.0 W/m2 CLR
16:44 0.4 °F /  -17.6 °C -5.1 °F /  -20.6 °C 30.51 in /  1033.1 hPa North 10.4 mph /  16.7 km/h 10.4 mph /  16.7 km/h 77 % 0.00 in /  0 mm 0.0 W/m2 CLR
16:47 0.3 °F /  -17.6 °C -5.2 °F /  -20.7 °C 30.51 in /  1033.1 hPa SSW 10.0 mph /  16.1 km/h 10.0 mph /  16.1 km/h 77 % 0.00 in /  0 mm 0.0 W/m2 CLR
16:52 0.2 °F /  -17.7 °C -5.3 °F /  -20.7 °C 30.50 in /  1032.7 hPa SSW 8.1 mph /  13 km/h 8.1 mph /  13 km/h 77 % 0.00 in /  0 mm 0.0 W/m2 CLR
16:55 0.2 °F /  -17.7 °C -5.3 °F /  -20.7 °C 30.50 in /  1032.7 hPa SSW 8.1 mph /  13 km/h 8.1 mph /  13 km/h 77 % 0.00 in /  0 mm 0.0 W/m2 CLR
17:01 0.1 °F /  -17.7 °C -5.4 °F /  -20.8 °C 30.50 in /  1032.7 hPa SSW 8.1 mph /  13 km/h 8.1 mph /  13 km/h 77 % 0.00 in /  0 mm 0.0 W/m2 CLR
17:02 0.1 °F /  -17.7 °C -5.4 °F /  -20.8 °C 30.50 in /  1032.7 hPa SSW 6.9 mph /  11.1 km/h 6.9 mph /  11.1 km/h 77 % 0.00 in /  0 mm 0.0 W/m2 CLR
17:06 0.0 °F /  -17.8 °C -5.5 °F /  -20.8 °C 30.50 in /  1032.7 hPa SSW 6.9 mph /  11.1 km/h 6.9 mph /  11.1 km/h 77 % 0.00 in /  0 mm 0.0 W/m2 CLR
17:11 -0.1 °F /  -17.8 °C -5.6 °F /  -20.9 °C 30.49 in /  1032.4 hPa SSW 8.1 mph /  13 km/h 8.1 mph /  13 km/h 77 % 0.00 in /  0 mm 0.0 W/m2 CLR
17:13 -0.1 °F /  -17.8 °C -5.6 °F /  -20.9 °C 30.49 in /  1032.4 hPa South 9.0 mph /  14.5 km/h 9.0 mph /  14.5 km/h 77 % 0.00 in /  0 mm 0.0 W/m2 CLR
17:18 -0.4 °F /  -18 °C -5.9 °F /  -21.1 °C 30.49 in /  1032.4 hPa SW 4.6 mph /  7.4 km/h 4.6 mph /  7.4 km/h 77 % 0.00 in /  0 mm 0.0 W/m2 CLR
17:23 -0.7 °F /  -18.2 °C -6.2 °F /  -21.2 °C 30.48 in /  1032.1 hPa South 4.6 mph /  7.4 km/h 4.6 mph /  7.4 km/h 77 % 0.00 in /  0 mm 0.0 W/m2 CLR
17:24 -0.8 °F /  -18.2 °C -6.3 °F /  -21.3 °C 30.48 in /  1032.1 hPa SSW 4.6 mph /  7.4 km/h 4.6 mph /  7.4 km/h 77 % 0.00 in /  0 mm 0.0 W/m2 CLR
17:29 -1.1 °F /  -18.4 °C -6.6 °F /  -21.4 °C 30.48 in /  1032.1 hPa SSW 3.5 mph /  5.6 km/h 3.5 mph /  5.6 km/h 77 % 0.00 in /  0 mm 0.0 W/m2 CLR
17:35 -1.2 °F /  -18.4 °C -6.4 °F /  -21.3 °C 30.47 in /  1031.7 hPa SSW 4.6 mph /  7.4 km/h 4.6 mph /  7.4 km/h 78 % 0.00 in /  0 mm 0.0 W/m2 CLR
17:40 -1.3 °F /  -18.5 °C -6.2 °F /  -21.2 °C 30.48 in /  1032.1 hPa SSW 8.1 mph /  13 km/h 8.1 mph /  13 km/h 79 % 0.00 in /  0 mm 0.0 W/m2 CLR
17:44 -1.3 °F /  -18.5 °C -6.2 °F /  -21.2 °C 30.48 in /  1032.1 hPa SSW 5.8 mph /  9.3 km/h 5.8 mph /  9.3 km/h 79 % 0.00 in /  0 mm 0.0 W/m2 CLR
17:46 -1.3 °F /  -18.5 °C -6.2 °F /  -21.2 °C 30.48 in /  1032.1 hPa SW 5.8 mph /  9.3 km/h 5.8 mph /  9.3 km/h 79 % 0.00 in /  0 mm 0.0 W/m2 CLR
17:51 -1.2 °F /  -18.4 °C -6.1 °F /  -21.2 °C 30.47 in /  1031.7 hPa SW 4.6 mph /  7.4 km/h 4.6 mph /  7.4 km/h 79 % 0.00 in /  0 mm 0.0 W/m2 CLR
17:56 -1.2 °F /  -18.4 °C -6.1 °F /  -21.2 °C 30.47 in /  1031.7 hPa SW 10.4 mph /  16.7 km/h 10.4 mph /  16.7 km/h 79 % 0.00 in /  0 mm 0.0 W/m2 CLR
17:57 -1.1 °F /  -18.4 °C -6.0 °F /  -21.1 °C 30.47 in /  1031.7 hPa SSW 5.8 mph /  9.3 km/h 5.8 mph /  9.3 km/h 79 % 0.00 in /  0 mm 0.0 W/m2 CLR
17:59 -1.0 °F /  -18.3 °C -5.9 °F /  -21.1 °C 30.47 in /  1031.7 hPa SSW 6.9 mph /  11.1 km/h 6.9 mph /  11.1 km/h 79 % 0.00 in /  0 mm 0.0 W/m2 CLR
18:04 -0.8 °F /  -18.2 °C -5.7 °F /  -20.9 °C 30.47 in /  1031.7 hPa SW 10.4 mph /  16.7 km/h 10.4 mph /  16.7 km/h 79 % 0.00 in /  0 mm 0.0 W/m2 CLR
18:05 -0.8 °F /  -18.2 °C -5.7 °F /  -20.9 °C 30.47 in /  1031.7 hPa SSW 10.4 mph /  16.7 km/h 10.4 mph /  16.7 km/h 79 % 0.00 in /  0 mm 0.0 W/m2 CLR
18:10 -0.7 °F /  -18.2 °C -5.9 °F /  -21.1 °C 30.47 in /  1031.7 hPa South 9.2 mph /  14.8 km/h 9.2 mph /  14.8 km/h 78 % 0.00 in /  0 mm 0.0 W/m2 CLR
18:12 -0.7 °F /  -18.2 °C -5.9 °F /  -21.1 °C 30.47 in /  1031.7 hPa SW 11.5 mph /  18.5 km/h 11.5 mph /  18.5 km/h 78 % 0.00 in /  0 mm 0.0 W/m2 CLR
18:19 -0.6 °F /  -18.1 °C -5.8 °F /  -21 °C 30.47 in /  1031.7 hPa SSW 11.5 mph /  18.5 km/h 11.5 mph /  18.5 km/h 78 % 0.00 in /  0 mm 0.0 W/m2 CLR
18:21 -0.6 °F /  -18.1 °C -5.8 °F /  -21 °C 30.47 in /  1031.7 hPa SSW 11.5 mph /  18.5 km/h 11.5 mph /  18.5 km/h 78 % 0.00 in /  0 mm 0.0 W/m2 CLR
18:24 -0.6 °F /  -18.1 °C -5.8 °F /  -21 °C 30.47 in /  1031.7 hPa SSW 13.8 mph /  22.2 km/h 13.8 mph /  22.2 km/h 78 % 0.00 in /  0 mm 0.0 W/m2 CLR
18:29 -0.7 °F /  -18.2 °C -5.7 °F /  -20.9 °C 30.46 in /  1031.4 hPa SW 9.2 mph /  14.8 km/h 9.2 mph /  14.8 km/h 79 % 0.00 in /  0 mm 0.0 W/m2 CLR
18:30 -0.7 °F /  -18.2 °C -5.9 °F /  -21.1 °C 30.46 in /  1031.4 hPa SSW 8.1 mph /  13 km/h 8.1 mph /  13 km/h 78 % 0.00 in /  0 mm 0.0 W/m2 CLR
18:35 -0.7 °F /  -18.2 °C -5.7 °F /  -20.9 °C 30.46 in /  1031.4 hPa SSW 6.9 mph /  11.1 km/h 6.9 mph /  11.1 km/h 79 % 0.00 in /  0 mm 0.0 W/m2 CLR
18:41 -0.7 °F /  -18.2 °C -5.7 °F /  -20.9 °C 30.45 in /  1031 hPa South 11.5 mph /  18.5 km/h 11.5 mph /  18.5 km/h 79 % 0.00 in /  0 mm 0.0 W/m2 CLR
18:46 -0.7 °F /  -18.2 °C -5.7 °F /  -20.9 °C 30.45 in /  1031 hPa SSW 11.5 mph /  18.5 km/h 11.5 mph /  18.5 km/h 79 % 0.00 in /  0 mm 0.0 W/m2 CLR
18:48 -0.7 °F /  -18.2 °C -5.7 °F /  -20.9 °C 30.45 in /  1031 hPa SSW 8.1 mph /  13 km/h 8.1 mph /  13 km/h 79 % 0.00 in /  0 mm 0.0 W/m2 CLR
18:53 -0.8 °F /  -18.2 °C -5.7 °F /  -20.9 °C 30.44 in /  1030.7 hPa SSW 11.5 mph /  18.5 km/h 11.5 mph /  18.5 km/h 79 % 0.00 in /  0 mm 0.0 W/m2 CLR
18:54 -0.8 °F /  -18.2 °C -5.7 °F /  -20.9 °C 30.43 in /  1030.4 hPa SSW 9.0 mph /  14.5 km/h 9.0 mph /  14.5 km/h 79 % 0.00 in /  0 mm 0.0 W/m2 CLR
18:59 -0.9 °F /  -18.3 °C -5.8 °F /  -21 °C 30.43 in /  1030.4 hPa SSW 8.1 mph /  13 km/h 8.1 mph /  13 km/h 79 % 0.00 in /  0 mm 0.0 W/m2 CLR
19:00 -0.9 °F /  -18.3 °C -5.8 °F /  -21 °C 30.43 in /  1030.4 hPa SSW 6.9 mph /  11.1 km/h 6.9 mph /  11.1 km/h 79 % 0.00 in /  0 mm 0.0 W/m2 CLR
19:01 -0.9 °F /  -18.3 °C -5.8 °F /  -21 °C 30.43 in /  1030.4 hPa SW 5.0 mph /  8 km/h 5.0 mph /  8 km/h 79 % 0.00 in /  0 mm 0.0 W/m2 CLR
19:05 -0.9 °F /  -18.3 °C -5.6 °F /  -20.9 °C 30.42 in /  1030 hPa SSW 6.9 mph /  11.1 km/h 6.9 mph /  11.1 km/h 80 % 0.00 in /  0 mm 0.0 W/m2 CLR
19:07 -0.8 °F /  -18.2 °C -5.5 °F /  -20.8 °C 30.42 in /  1030 hPa SSW 6.9 mph /  11.1 km/h 6.9 mph /  11.1 km/h 80 % 0.00 in /  0 mm 0.0 W/m2 CLR
19:12 -0.6 °F /  -18.1 °C -5.3 °F /  -20.7 °C 30.42 in /  1030 hPa SSW 5.0 mph /  8 km/h 5.0 mph /  8 km/h 80 % 0.00 in /  0 mm 0.0 W/m2 CLR
19:17 -0.4 °F /  -18 °C -5.1 °F /  -20.6 °C 30.42 in /  1030 hPa SSW 6.9 mph /  11.1 km/h 6.9 mph /  11.1 km/h 80 % 0.00 in /  0 mm 0.0 W/m2 CLR
19:18 -0.3 °F /  -17.9 °C -5.0 °F /  -20.6 °C 30.42 in /  1030 hPa WSW 9.2 mph /  14.8 km/h 9.2 mph /  14.8 km/h 80 % 0.00 in /  0 mm 0.0 W/m2 CLR
19:20 -0.2 °F /  -17.9 °C -4.9 °F /  -20.5 °C 30.41 in /  1029.7 hPa SSW 7.0 mph /  11.3 km/h 7.0 mph /  11.3 km/h 80 % 0.00 in /  0 mm 0.0 W/m2 CLR
19:23 0.0 °F /  -17.8 °C -4.7 °F /  -20.4 °C 30.41 in /  1029.7 hPa SSW 10.4 mph /  16.7 km/h 10.4 mph /  16.7 km/h 80 % 0.00 in /  0 mm 0.0 W/m2 CLR
19:29 0.4 °F /  -17.6 °C -4.3 °F /  -20.2 °C 30.41 in /  1029.7 hPa SSW 8.1 mph /  13 km/h 8.1 mph /  13 km/h 80 % 0.00 in /  0 mm 0.0 W/m2 CLR
19:31 0.6 °F /  -17.4 °C -4.1 °F /  -20.1 °C 30.40 in /  1029.3 hPa SSW 5.8 mph /  9.3 km/h 5.8 mph /  9.3 km/h 80 % 0.00 in /  0 mm 0.0 W/m2 CLR
19:36 0.9 °F /  -17.3 °C -3.8 °F /  -19.9 °C 30.39 in /  1029 hPa South 6.9 mph /  11.1 km/h 6.9 mph /  11.1 km/h 80 % 0.00 in /  0 mm 0.0 W/m2 CLR
19:44 1.2 °F /  -17.1 °C -3.8 °F /  -19.9 °C 30.39 in /  1029 hPa South 6.9 mph /  11.1 km/h 6.9 mph /  11.1 km/h 79 % 0.00 in /  0 mm 0.0 W/m2 CLR
19:51 1.2 °F /  -17.1 °C -3.8 °F /  -19.9 °C 30.38 in /  1028.7 hPa South 8.1 mph /  13 km/h 8.1 mph /  13 km/h 79 % 0.00 in /  0 mm 0.0 W/m2 CLR
19:56 0.9 °F /  -17.3 °C -4.4 °F /  -20.2 °C 30.38 in /  1028.7 hPa South 4.6 mph /  7.4 km/h 4.6 mph /  7.4 km/h 78 % 0.00 in /  0 mm 0.0 W/m2 CLR
19:57 0.9 °F /  -17.3 °C -4.4 °F /  -20.2 °C 30.38 in /  1028.7 hPa SW 9.2 mph /  14.8 km/h 9.2 mph /  14.8 km/h 78 % 0.00 in /  0 mm 0.0 W/m2 CLR
20:02 0.7 °F /  -17.4 °C -4.6 °F /  -20.3 °C 30.38 in /  1028.7 hPa SSW 4.6 mph /  7.4 km/h 4.6 mph /  7.4 km/h 78 % 0.00 in /  0 mm 0.0 W/m2 CLR
20:03 0.7 °F /  -17.4 °C -4.6 °F /  -20.3 °C 30.39 in /  1029 hPa SSW 2.3 mph /  3.7 km/h 2.3 mph /  3.7 km/h 78 % 0.00 in /  0 mm 0.0 W/m2 CLR
20:04 0.7 °F /  -17.4 °C -4.6 °F /  -20.3 °C 30.38 in /  1028.7 hPa SSW 2.3 mph /  3.7 km/h 2.3 mph /  3.7 km/h 78 % 0.00 in /  0 mm 0.0 W/m2 CLR
20:10 0.6 °F /  -17.4 °C -4.6 °F /  -20.3 °C 30.39 in /  1029 hPa SSW 8.1 mph /  13 km/h 8.1 mph /  13 km/h 78 % 0.00 in /  0 mm 0.0 W/m2 CLR
20:15 0.6 °F /  -17.4 °C -4.4 °F /  -20.2 °C 30.39 in /  1029 hPa SSW 3.5 mph /  5.6 km/h 3.5 mph /  5.6 km/h 79 % 0.00 in /  0 mm 0.0 W/m2 CLR
20:17 0.6 °F /  -17.4 °C -4.4 °F /  -20.2 °C 30.39 in /  1029 hPa SSW 3.5 mph /  5.6 km/h 3.5 mph /  5.6 km/h 79 % 0.00 in /  0 mm 0.0 W/m2 CLR
20:22 0.8 °F /  -17.3 °C -4.2 °F /  -20.1 °C 30.38 in /  1028.7 hPa SSW 6.9 mph /  11.1 km/h 6.9 mph /  11.1 km/h 79 % 0.00 in /  0 mm 0.0 W/m2 CLR
20:23 0.8 °F /  -17.3 °C -4.2 °F /  -20.1 °C 30.38 in /  1028.7 hPa SSW 4.6 mph /  7.4 km/h 4.6 mph /  7.4 km/h 79 % 0.00 in /  0 mm 0.0 W/m2 CLR
20:28 0.9 °F /  -17.3 °C -4.1 °F /  -20.1 °C 30.31 in /  1026.3 hPa SSW 3.5 mph /  5.6 km/h 3.5 mph /  5.6 km/h 79 % 0.00 in /  0 mm 0.0 W/m2 CLR
20:31 1.0 °F /  -17.2 °C -4.0 °F /  -20 °C 30.31 in /  1026.3 hPa SSW 8.1 mph /  13 km/h 8.1 mph /  13 km/h 79 % 0.00 in /  0 mm 0.0 W/m2 CLR
20:33 1.1 °F /  -17.2 °C -3.9 °F /  -19.9 °C 30.31 in /  1026.3 hPa SSW 5.8 mph /  9.3 km/h 5.8 mph /  9.3 km/h 79 % 0.00 in /  0 mm 0.0 W/m2 CLR
20:37 1.1 °F /  -17.2 °C -3.9 °F /  -19.9 °C 30.30 in /  1026 hPa SSW 8.0 mph /  12.9 km/h 8.0 mph /  12.9 km/h 79 % 0.00 in /  0 mm 0.0 W/m2 CLR
20:39 1.1 °F /  -17.2 °C -3.9 °F /  -19.9 °C 30.30 in /  1026 hPa SSW 6.9 mph /  11.1 km/h 6.9 mph /  11.1 km/h 79 % 0.00 in /  0 mm 0.0 W/m2 CLR
20:44 1.1 °F /  -17.2 °C -3.9 °F /  -19.9 °C 30.30 in /  1026 hPa SSW 5.8 mph /  9.3 km/h 5.8 mph /  9.3 km/h 79 % 0.00 in /  0 mm 0.0 W/m2 CLR
20:47 1.1 °F /  -17.2 °C -3.9 °F /  -19.9 °C 30.30 in /  1026 hPa SSW 5.8 mph /  9.3 km/h 5.8 mph /  9.3 km/h 79 % 0.00 in /  0 mm 0.0 W/m2 CLR
20:48 1.1 °F /  -17.2 °C -3.9 °F /  -19.9 °C 30.30 in /  1026 hPa SSW 4.6 mph /  7.4 km/h 4.6 mph /  7.4 km/h 79 % 0.00 in /  0 mm 0.0 W/m2 CLR
20:53 1.2 °F /  -17.1 °C -3.8 °F /  -19.9 °C 30.29 in /  1025.6 hPa SSW 4.6 mph /  7.4 km/h 4.6 mph /  7.4 km/h 79 % 0.00 in /  0 mm 0.0 W/m2 CLR
20:54 1.2 °F /  -17.1 °C -3.8 °F /  -19.9 °C 30.29 in /  1025.6 hPa SSW 5.8 mph /  9.3 km/h 5.8 mph /  9.3 km/h 79 % 0.00 in /  0 mm 0.0 W/m2 CLR
20:59 1.5 °F /  -16.9 °C -3.5 °F /  -19.7 °C 30.29 in /  1025.6 hPa North 9.0 mph /  14.5 km/h 9.0 mph /  14.5 km/h 79 % 0.00 in /  0 mm 0.0 W/m2 CLR
21:00 1.5 °F /  -16.9 °C -3.5 °F /  -19.7 °C 30.29 in /  1025.6 hPa SSW 11.5 mph /  18.5 km/h 11.5 mph /  18.5 km/h 79 % 0.00 in /  0 mm 0.0 W/m2 CLR
21:05 1.6 °F /  -16.9 °C -3.4 °F /  -19.7 °C 30.28 in /  1025.3 hPa South 8.1 mph /  13 km/h 8.1 mph /  13 km/h 79 % 0.00 in /  0 mm 0.0 W/m2 CLR
21:06 1.7 °F /  -16.8 °C -3.3 °F /  -19.6 °C 30.28 in /  1025.3 hPa SSW 6.0 mph /  9.7 km/h 6.0 mph /  9.7 km/h 79 % 0.00 in /  0 mm 0.0 W/m2 CLR
21:07 1.7 °F /  -16.8 °C -3.3 °F /  -19.6 °C 30.28 in /  1025.3 hPa SSW 9.2 mph /  14.8 km/h 9.2 mph /  14.8 km/h 79 % 0.00 in /  0 mm 0.0 W/m2 CLR
21:14 1.8 °F /  -16.8 °C -3.2 °F /  -19.6 °C 30.28 in /  1025.3 hPa SSW 10.4 mph /  16.7 km/h 10.4 mph /  16.7 km/h 79 % 0.00 in /  0 mm 0.0 W/m2 CLR
21:20 1.9 °F /  -16.7 °C -3.1 °F /  -19.5 °C 30.27 in /  1024.9 hPa SSW 9.2 mph /  14.8 km/h 9.2 mph /  14.8 km/h 79 % 0.00 in /  0 mm 0.0 W/m2 CLR
21:30 2.7 °F /  -16.3 °C -2.3 °F /  -19.1 °C 30.27 in /  1024.9 hPa SSW 9.2 mph /  14.8 km/h 9.2 mph /  14.8 km/h 79 % 0.00 in /  0 mm 0.0 W/m2 CLR
21:40 3.3 °F /  -15.9 °C -2.0 °F /  -18.9 °C 30.26 in /  1024.6 hPa SSW 10.4 mph /  16.7 km/h 10.4 mph /  16.7 km/h 78 % 0.00 in /  0 mm 0.0 W/m2 CLR
21:44 3.4 °F /  -15.9 °C -1.9 °F /  -18.8 °C 30.26 in /  1024.6 hPa South 11.5 mph /  18.5 km/h 11.5 mph /  18.5 km/h 78 % 0.00 in /  0 mm 0.0 W/m2 CLR
21:47 3.5 °F /  -15.8 °C -1.8 °F /  -18.8 °C 30.26 in /  1024.6 hPa SW 11.5 mph /  18.5 km/h 11.5 mph /  18.5 km/h 78 % 0.00 in /  0 mm 0.0 W/m2 CLR
21:49 3.7 °F /  -15.7 °C -1.6 °F /  -18.7 °C 30.26 in /  1024.6 hPa SSW 9.2 mph /  14.8 km/h 9.2 mph /  14.8 km/h 78 % 0.00 in /  0 mm 0.0 W/m2 CLR
21:53 3.8 °F /  -15.7 °C -1.5 °F /  -18.6 °C 30.25 in /  1024.3 hPa SW 16.1 mph /  25.9 km/h 16.1 mph /  25.9 km/h 78 % 0.00 in /  0 mm 0.0 W/m2 CLR
21:58 4.2 °F /  -15.4 °C -1.4 °F /  -18.6 °C 30.25 in /  1024.3 hPa SW 8.1 mph /  13 km/h 8.1 mph /  13 km/h 77 % 0.00 in /  0 mm 0.0 W/m2 CLR
21:59 4.2 °F /  -15.4 °C -1.4 °F /  -18.6 °C 30.24 in /  1023.9 hPa SSW 11.5 mph /  18.5 km/h 11.5 mph /  18.5 km/h 77 % 0.00 in /  0 mm 0.0 W/m2 CLR
22:09 4.7 °F /  -15.2 °C -0.9 °F /  -18.3 °C 30.25 in /  1024.3 hPa SSW 11.5 mph /  18.5 km/h 11.5 mph /  18.5 km/h 77 % 0.00 in /  0 mm 0.0 W/m2 CLR
22:12 4.8 °F /  -15.1 °C -1.1 °F /  -18.4 °C 30.24 in /  1023.9 hPa SSW 10.4 mph /  16.7 km/h 10.4 mph /  16.7 km/h 76 % 0.00 in /  0 mm 0.0 W/m2 CLR
22:16 4.9 °F /  -15.1 °C -1.0 °F /  -18.3 °C 30.24 in /  1023.9 hPa South 12.7 mph /  20.4 km/h 12.7 mph /  20.4 km/h 76 % 0.00 in /  0 mm 0.0 W/m2 CLR
22:21 5.2 °F /  -14.9 °C -0.7 °F /  -18.2 °C 30.24 in /  1023.9 hPa SW 13.0 mph /  20.9 km/h 13.0 mph /  20.9 km/h 76 % 0.00 in /  0 mm 0.0 W/m2 CLR
22:26 5.5 °F /  -14.7 °C -0.4 °F /  -18 °C 30.23 in /  1023.6 hPa SW 12.7 mph /  20.4 km/h 12.7 mph /  20.4 km/h 76 % 0.00 in /  0 mm 0.0 W/m2 CLR
22:30 5.6 °F /  -14.7 °C -0.3 °F /  -17.9 °C 30.23 in /  1023.6 hPa SSW 14.0 mph /  22.5 km/h 14.0 mph /  22.5 km/h 76 % 0.00 in /  0 mm 0.0 W/m2 CLR
22:35 5.6 °F /  -14.7 °C -0.3 °F /  -17.9 °C 30.23 in /  1023.6 hPa SW 11.5 mph /  18.5 km/h 11.5 mph /  18.5 km/h 76 % 0.00 in /  0 mm 0.0 W/m2 CLR
22:37 5.6 °F /  -14.7 °C -0.3 °F /  -17.9 °C 30.23 in /  1023.6 hPa SW 8.0 mph /  12.9 km/h 8.0 mph /  12.9 km/h 76 % 0.00 in /  0 mm 0.0 W/m2 CLR
22:39 5.6 °F /  -14.7 °C -0.6 °F /  -18.1 °C 30.23 in /  1023.6 hPa SW 14.0 mph /  22.5 km/h 14.0 mph /  22.5 km/h 75 % 0.00 in /  0 mm 0.0 W/m2 CLR
22:42 5.6 °F /  -14.7 °C -0.3 °F /  -17.9 °C 30.23 in /  1023.6 hPa SSW 6.9 mph /  11.1 km/h 6.9 mph /  11.1 km/h 76 % 0.00 in /  0 mm 0.0 W/m2 CLR
22:47 5.6 °F /  -14.7 °C -0.3 °F /  -17.9 °C 30.23 in /  1023.6 hPa SW 9.2 mph /  14.8 km/h 9.2 mph /  14.8 km/h 76 % 0.00 in /  0 mm 0.0 W/m2 CLR
22:49 5.6 °F /  -14.7 °C -0.6 °F /  -18.1 °C 30.23 in /  1023.6 hPa SW 10.4 mph /  16.7 km/h 10.4 mph /  16.7 km/h 75 % 0.00 in /  0 mm 0.0 W/m2 CLR
22:54 5.5 °F /  -14.7 °C -0.4 °F /  -18 °C 30.23 in /  1023.6 hPa SSW 11.0 mph /  17.7 km/h 11.0 mph /  17.7 km/h 76 % 0.00 in /  0 mm 0.0 W/m2 CLR
22:55 5.6 °F /  -14.7 °C -0.3 °F /  -17.9 °C 30.23 in /  1023.6 hPa SSW 12.0 mph /  19.3 km/h 12.0 mph /  19.3 km/h 76 % 0.00 in /  0 mm 0.0 W/m2 CLR
23:00 5.4 °F /  -14.8 °C -0.8 °F /  -18.2 °C 30.22 in /  1023.2 hPa South 11.5 mph /  18.5 km/h 11.5 mph /  18.5 km/h 75 % 0.00 in /  0 mm 0.0 W/m2 CLR
23:04 5.4 °F /  -14.8 °C -0.5 °F /  -18.1 °C 30.22 in /  1023.2 hPa SW 11.5 mph /  18.5 km/h 11.5 mph /  18.5 km/h 76 % 0.00 in /  0 mm 0.0 W/m2 CLR
23:05 5.3 °F /  -14.8 °C -0.6 °F /  -18.1 °C 30.22 in /  1023.2 hPa SW 9.2 mph /  14.8 km/h 9.2 mph /  14.8 km/h 76 % 0.00 in /  0 mm 0.0 W/m2 CLR
23:09 5.3 °F /  -14.8 °C -0.6 °F /  -18.1 °C 30.22 in /  1023.2 hPa South 12.7 mph /  20.4 km/h 12.7 mph /  20.4 km/h 76 % 0.00 in /  0 mm 0.0 W/m2 CLR
23:14 5.3 °F /  -14.8 °C -0.6 °F /  -18.1 °C 30.22 in /  1023.2 hPa SSW 9.2 mph /  14.8 km/h 9.2 mph /  14.8 km/h 76 % 0.00 in /  0 mm 0.0 W/m2 CLR
23:16 5.3 °F /  -14.8 °C -0.6 °F /  -18.1 °C 30.22 in /  1023.2 hPa SSW 11.5 mph /  18.5 km/h 11.5 mph /  18.5 km/h 76 % 0.00 in /  0 mm 0.0 W/m2 CLR
23:19 5.3 °F /  -14.8 °C -0.6 °F /  -18.1 °C 30.22 in /  1023.2 hPa SW 11.5 mph /  18.5 km/h 11.5 mph /  18.5 km/h 76 % 0.00 in /  0 mm 0.0 W/m2 CLR
23:22 5.4 °F /  -14.8 °C -0.5 °F /  -18.1 °C 30.22 in /  1023.2 hPa SSW 11.5 mph /  18.5 km/h 11.5 mph /  18.5 km/h 76 % 0.00 in /  0 mm 0.0 W/m2 CLR
23:25 5.4 °F /  -14.8 °C -0.5 °F /  -18.1 °C 30.22 in /  1023.2 hPa SSW 8.1 mph /  13 km/h 8.1 mph /  13 km/h 76 % 0.00 in /  0 mm 0.0 W/m2 CLR
23:30 5.5 °F /  -14.7 °C -0.4 °F /  -18 °C 30.21 in /  1022.9 hPa SSW 10.4 mph /  16.7 km/h 10.4 mph /  16.7 km/h 76 % 0.00 in /  0 mm 0.0 W/m2 CLR
23:35 5.6 °F /  -14.7 °C -0.3 °F /  -17.9 °C 30.21 in /  1022.9 hPa South 11.5 mph /  18.5 km/h 11.5 mph /  18.5 km/h 76 % 0.00 in /  0 mm 0.0 W/m2 CLR
23:36 5.5 °F /  -14.7 °C -0.4 °F /  -18 °C 30.21 in /  1022.9 hPa SW 11.5 mph /  18.5 km/h 11.5 mph /  18.5 km/h 76 % 0.00 in /  0 mm 0.0 W/m2 CLR
23:37 5.5 °F /  -14.7 °C -0.4 °F /  -18 °C 30.21 in /  1022.9 hPa WSW 11.5 mph /  18.5 km/h 11.5 mph /  18.5 km/h 76 % 0.00 in /  0 mm 0.0 W/m2 CLR
23:42 5.6 °F /  -14.7 °C -0.3 °F /  -17.9 °C 30.21 in /  1022.9 hPa SSW 9.2 mph /  14.8 km/h 9.2 mph /  14.8 km/h 76 % 0.00 in /  0 mm 0.0 W/m2 CLR
23:43 5.6 °F /  -14.7 °C -0.3 °F /  -17.9 °C 30.21 in /  1022.9 hPa SSW 6.9 mph /  11.1 km/h 6.9 mph /  11.1 km/h 76 % 0.00 in /  0 mm 0.0 W/m2 CLR
23:48 5.6 °F /  -14.7 °C -0.3 °F /  -17.9 °C 30.20 in /  1022.6 hPa SSW 6.9 mph /  11.1 km/h 6.9 mph /  11.1 km/h 76 % 0.00 in /  0 mm 0.0 W/m2 CLR
23:49 5.7 °F /  -14.6 °C -0.2 °F /  -17.9 °C 30.20 in /  1022.6 hPa SSW 5.8 mph /  9.3 km/h 5.8 mph /  9.3 km/h 76 % 0.00 in /  0 mm 0.0 W/m2 CLR
23:54 5.6 °F /  -14.7 °C -0.3 °F /  -17.9 °C 30.20 in /  1022.6 hPa SSW 5.8 mph /  9.3 km/h 5.8 mph /  9.3 km/h 76 % 0.00 in /  0 mm 0.0 W/m2 CLR
23:55 5.6 °F /  -14.7 °C -0.3 °F /  -17.9 °C 30.20 in /  1022.6 hPa SSW 3.5 mph /  5.6 km/h   76 % 0.00 in /  0 mm 0.0 W/m2 CLR
23:58 5.6 °F /  -14.7 °C -0.3 °F /  -17.9 °C 30.20 in /  1022.6 hPa SW 4.6 mph /  7.4 km/h 4.6 mph /  7.4 km/h 76 % 0.00 in /  0 mm 0.0 W/m2 CLR
Bourbonnais, Illinois, USA
Compliments of Weather Underground - 4.25 mb